Darstellungsparameter: Aktuell verwendete Einstellungen:
Skalierung der Graphiken ... ?
xyx+y,   Skalierungsfaktor:      Skalierung: Modus: x, Faktor: 1
Darstellungszeitraum ... ?
Vom - - bis: - -   Zeitraum: 20.07.2015 - 26.07.2015
Min/Max/Avg-Anzeige ... ?
Zeige MMA aktuell
Zeige MMA Monat
Zeige MMA alles
Zeige --A aktuell
Zeige --A Monat
Zeige --A alles
Keine MMA-Anzeige
MMA:
Keine MMA-Graphiken
MMA-Basis: 20.07.2015 - 26.07.2015
Quicknavigation für Darstellung... ?
Tage:      1T, 2T, 3T, 5T -1T -2T -3T -5T +1T +2T +3T +5T
Wochen: 1W, 2W, 3W -1W -2W -3W +1W +2W +3W
Monate: 1M, 3M, 6M -1M -3M -6M +1M +3M +6M
Jahre:    1J, 3J, 5J, 10J -1J -3J -5J -10J +1J +3J +5J +10J
Nutze für die Darstellung ... ?
Originaldaten oder Mittelwerte auf ...
Stundenbasis Tagesbasis Wochenbasis
Monatsbasis Jahresbasis      Datenbasis: Original-Daten
Darstellen als:
Statistik (Auto) Statistik J:M      Darstellung:
Zur Graphik,    zurück zur Übersicht aller Sensoren.
 
Tabellarische Datenbersicht: ?
 
Sensor: Nr:Datum:Temp:Abs-Feuchte:Windchill:Wind:
Aussen-T/F 1 20-07-2015 07:10:00 18.3 C 14.38 g/m*3 18.3 C 0 km/h
2 20-07-2015 07:15:00 18.3 C 14.38 g/m*3 18.3 C 1.6 km/h
3 20-07-2015 07:20:00 18.3 C 14.54 g/m*3 18.3 C 0 km/h
4 20-07-2015 07:25:00 18.3 C 14.54 g/m*3 18.3 C 0 km/h
5 20-07-2015 07:30:00 18.3 C 14.54 g/m*3 18.3 C 0 km/h
6 20-07-2015 07:35:00 18.3 C 14.54 g/m*3 18.3 C 0 km/h
7 20-07-2015 07:40:00 18.3 C 14.54 g/m*3 18.3 C 0 km/h
8 20-07-2015 07:45:00 18.3 C 14.54 g/m*3 18.3 C 0 km/h
9 20-07-2015 07:50:00 18.3 C 14.7 g/m*3 18.3 C 0 km/h
10 20-07-2015 07:55:00 18.3 C 14.7 g/m*3 18.3 C 0 km/h
11 20-07-2015 08:00:00 18.4 C 14.78 g/m*3 18.4 C 0 km/h
12 20-07-2015 08:05:00 18.4 C 14.78 g/m*3 18.4 C 0 km/h
13 20-07-2015 08:10:00 18.4 C 14.78 g/m*3 18.4 C 1.6 km/h
14 20-07-2015 08:15:00 18.4 C 14.78 g/m*3 18.4 C 0 km/h
15 20-07-2015 08:20:00 18.4 C 14.78 g/m*3 18.4 C 0 km/h
16 20-07-2015 08:25:00 18.5 C 14.87 g/m*3 18.5 C 0 km/h
17 20-07-2015 08:30:00 18.6 C 14.96 g/m*3 18.6 C 0 km/h
18 20-07-2015 08:35:00 18.6 C 14.96 g/m*3 18.6 C 0 km/h
19 20-07-2015 08:40:00 18.6 C 15.12 g/m*3 18.6 C 0 km/h
20 20-07-2015 08:45:00 18.6 C 15.12 g/m*3 18.6 C 1.6 km/h
21 20-07-2015 08:50:00 18.6 C 15.12 g/m*3 18.6 C 0 km/h
22 20-07-2015 08:55:00 18.7 C 15.21 g/m*3 18.7 C 0 km/h
23 20-07-2015 09:00:00 18.7 C 15.21 g/m*3 18.7 C 0 km/h
24 20-07-2015 09:05:00 18.8 C 15.3 g/m*3 18.8 C 0 km/h
25 20-07-2015 09:10:00 18.9 C 15.39 g/m*3 18.9 C 1.6 km/h
Sensor: Nr:Datum:Temp:Abs-Feuchte:Windchill:Wind:
Aussen-T/F 26 20-07-2015 09:15:00 18.9 C 15.39 g/m*3 18.9 C 1.6 km/h
27 20-07-2015 09:20:00 18.9 C 15.39 g/m*3 18.9 C 0 km/h
28 20-07-2015 09:40:00 19.2 C 15.5 g/m*3 19.2 C 1.6 km/h
29 20-07-2015 09:45:00 19.2 C 15.5 g/m*3 19.2 C 0 km/h
30 20-07-2015 09:50:00 19.3 C 15.76 g/m*3 19.3 C 0 km/h
31 20-07-2015 09:55:00 19.4 C 15.68 g/m*3 19.4 C 1.6 km/h
32 20-07-2015 10:00:00 19.4 C 15.68 g/m*3 19.4 C 0 km/h
33 20-07-2015 10:05:00 19.5 C 15.78 g/m*3 19.5 C 0 km/h
34 20-07-2015 10:10:00 19.6 C 15.87 g/m*3 19.6 C 0 km/h
35 20-07-2015 10:15:00 19.8 C 16.06 g/m*3 19.8 C 4.8 km/h
36 20-07-2015 10:20:00 20 C 16.24 g/m*3 20 C 3.2 km/h
37 20-07-2015 10:25:00 20.1 C 16.34 g/m*3 20.1 C 1.6 km/h
38 20-07-2015 10:30:00 20.3 C 16.53 g/m*3 20.3 C 1.6 km/h
39 20-07-2015 10:35:00 20.3 C 16.18 g/m*3 20.3 C 0 km/h
40 20-07-2015 10:40:00 20.5 C 16.37 g/m*3 20.5 C 1.6 km/h
41 20-07-2015 10:45:00 20.6 C 16.47 g/m*3 20.6 C 0 km/h
42 20-07-2015 10:50:00 20.6 C 16.47 g/m*3 20.6 C 1.6 km/h
43 20-07-2015 10:55:00 20.6 C 16.29 g/m*3 20.6 C 0 km/h
44 20-07-2015 11:00:00 20.6 C 16.29 g/m*3 20.6 C 0 km/h
45 20-07-2015 11:05:00 20.7 C 16.56 g/m*3 20.7 C 1.6 km/h
46 20-07-2015 11:10:00 20.8 C 16.66 g/m*3 20.8 C 1.6 km/h
47 20-07-2015 11:15:00 20.9 C 16.57 g/m*3 20.9 C 3.2 km/h
48 20-07-2015 11:20:00 21.1 C 16.95 g/m*3 21.1 C 1.6 km/h
49 20-07-2015 11:25:00 21.3 C 17.15 g/m*3 21.3 C 4.8 km/h
50 20-07-2015 11:30:00 21.4 C 17.06 g/m*3 21.4 C 4.8 km/h
Sensor: Nr:Datum:Temp:Abs-Feuchte:Windchill:Wind:
Aussen-T/F 51 20-07-2015 11:35:00 21.6 C 17.07 g/m*3 21.6 C 3.2 km/h
52 20-07-2015 11:40:00 21.8 C 17.27 g/m*3 21.8 C 1.6 km/h
53 20-07-2015 11:45:00 21.9 C 16.98 g/m*3 21.9 C 1.6 km/h
54 20-07-2015 11:50:00 22 C 17.27 g/m*3 22 C 0 km/h
55 20-07-2015 11:55:00 22.1 C 16.98 g/m*3 22.1 C 0 km/h
56 20-07-2015 12:00:00 22.1 C 17.37 g/m*3 22.1 C 1.6 km/h
57 20-07-2015 12:05:00 22.1 C 17.18 g/m*3 22.1 C 3.2 km/h
58 20-07-2015 12:10:00 22.1 C 16.98 g/m*3 22.1 C 1.6 km/h
59 20-07-2015 12:15:00 22.2 C 17.08 g/m*3 22.2 C 3.2 km/h
60 20-07-2015 12:20:00 22.3 C 16.98 g/m*3 22.3 C 0 km/h
61 20-07-2015 12:25:00 22.6 C 17.48 g/m*3 22.6 C 4.8 km/h
62 20-07-2015 12:30:00 22.9 C 17.17 g/m*3 22.9 C 3.2 km/h
63 20-07-2015 12:35:00 23.5 C 17.76 g/m*3 23.5 C 8.1 km/h
64 20-07-2015 12:40:00 24 C 17.41 g/m*3 24 C 4.8 km/h
65 20-07-2015 12:45:00 24.4 C 17.58 g/m*3 24.4 C 9.7 km/h
66 20-07-2015 12:50:00 24.4 C 17.14 g/m*3 24.4 C 11.3 km/h
67 20-07-2015 12:55:00 24.3 C 17.04 g/m*3 24.3 C 14.5 km/h
68 20-07-2015 13:00:00 24.1 C 17.07 g/m*3 24.1 C 8.1 km/h
69 20-07-2015 13:05:00 24.2 C 17.16 g/m*3 24.2 C 8.1 km/h
70 20-07-2015 13:10:00 24.4 C 17.14 g/m*3 24.4 C 8.1 km/h
71 20-07-2015 13:15:00 24.4 C 17.14 g/m*3 24.4 C 4.8 km/h
72 20-07-2015 13:20:00 24.4 C 17.58 g/m*3 24.4 C 4.8 km/h
73 20-07-2015 13:25:00 24.4 C 16.91 g/m*3 24.4 C 8.1 km/h
74 20-07-2015 13:30:00 24.4 C 16.69 g/m*3 24.4 C 8.1 km/h
75 20-07-2015 13:35:00 24.4 C 17.36 g/m*3 24.4 C 1.6 km/h
Sensor: Nr:Datum:Temp:Abs-Feuchte:Windchill:Wind:
Aussen-T/F 76 20-07-2015 13:40:00 24.3 C 17.48 g/m*3 24.3 C 8.1 km/h
77 20-07-2015 13:45:00 24 C 16.97 g/m*3 24 C 4.8 km/h
78 20-07-2015 13:50:00 23.7 C 17.11 g/m*3 23.7 C 1.6 km/h
79 20-07-2015 13:55:00 23.6 C 17.23 g/m*3 23.6 C 1.6 km/h
80 20-07-2015 14:00:00 23.6 C 17.44 g/m*3 23.6 C 4.8 km/h
81 20-07-2015 14:05:00 23.4 C 17.03 g/m*3 23.4 C 12.9 km/h
82 20-07-2015 14:10:00 23.2 C 17.46 g/m*3 23.2 C 8.1 km/h
83 20-07-2015 14:15:00 22.8 C 17.07 g/m*3 22.8 C 4.8 km/h
84 20-07-2015 14:20:00 22.6 C 17.28 g/m*3 22.6 C 4.8 km/h
85 20-07-2015 14:25:00 22.4 C 17.68 g/m*3 22.4 C 4.8 km/h
86 20-07-2015 14:30:00 22.3 C 17.77 g/m*3 22.3 C 8.1 km/h
87 20-07-2015 14:35:00 22.2 C 17.67 g/m*3 22.2 C 6.4 km/h
88 20-07-2015 14:40:00 22.1 C 17.57 g/m*3 22.1 C 9.7 km/h
89 20-07-2015 14:45:00 21.9 C 17.56 g/m*3 21.9 C 4.8 km/h
90 20-07-2015 14:50:00 21.9 C 17.75 g/m*3 21.9 C 4.8 km/h
91 20-07-2015 14:55:00 21.9 C 17.75 g/m*3 21.9 C 4.8 km/h
92 20-07-2015 15:00:00 21.9 C 17.95 g/m*3 21.9 C 3.2 km/h
93 20-07-2015 15:05:00 21.9 C 17.95 g/m*3 21.9 C 3.2 km/h
94 20-07-2015 15:45:00 22.6 C 18.28 g/m*3 22.6 C 1.6 km/h
95 20-07-2015 15:50:00 22.8 C 18.49 g/m*3 22.8 C 1.6 km/h
96 20-07-2015 15:55:00 22.8 C 18.29 g/m*3 22.8 C 1.6 km/h
97 20-07-2015 16:00:00 23 C 18.7 g/m*3 23 C 3.2 km/h
98 20-07-2015 16:05:00 23.3 C 19.24 g/m*3 23.3 C 4.8 km/h
99 20-07-2015 16:10:00 23.6 C 19.35 g/m*3 23.6 C 3.2 km/h
100 20-07-2015 16:15:00 23.9 C 19.25 g/m*3 23.9 C 3.2 km/h
Sensor: Nr:Datum:Temp:Abs-Feuchte:Windchill:Wind:
Aussen-T/F 101 20-07-2015 16:20:00 24.1 C 18.82 g/m*3 24.1 C 1.6 km/h
102 20-07-2015 16:25:00 24.2 C 19.58 g/m*3 24.2 C 0 km/h
103 20-07-2015 16:30:00 24.1 C 19.25 g/m*3 24.1 C 4.8 km/h
104 20-07-2015 16:35:00 24.2 C 18.48 g/m*3 24.2 C 9.7 km/h
105 20-07-2015 16:40:00 24.4 C 18.69 g/m*3 24.4 C 8.1 km/h
106 20-07-2015 16:45:00 24.7 C 19.47 g/m*3 24.7 C 0 km/h
107 20-07-2015 16:50:00 25.1 C 18.75 g/m*3 25.1 C 9.7 km/h
108 20-07-2015 16:55:00 25.8 C 19.26 g/m*3 25.8 C 9.7 km/h
109 20-07-2015 17:00:00 26.1 C 19.59 g/m*3 26.1 C 6.4 km/h
110 20-07-2015 17:05:00 25.8 C 18.54 g/m*3 25.8 C 1.6 km/h
111 20-07-2015 17:10:00 25.6 C 19.28 g/m*3 25.6 C 1.6 km/h
112 20-07-2015 17:15:00 25.4 C 19.07 g/m*3 25.4 C 3.2 km/h
113 20-07-2015 17:20:00 25.4 C 18.6 g/m*3 25.4 C 6.4 km/h
114 20-07-2015 17:25:00 25.3 C 18.73 g/m*3 25.3 C 6.4 km/h
115 20-07-2015 17:30:00 25.1 C 18.29 g/m*3 25.1 C 0 km/h
116 20-07-2015 17:35:00 24.9 C 18.54 g/m*3 24.9 C 4.8 km/h
117 20-07-2015 17:40:00 24.9 C 18.54 g/m*3 24.9 C 3.2 km/h
118 20-07-2015 17:45:00 24.8 C 18.44 g/m*3 24.8 C 1.6 km/h
119 20-07-2015 17:50:00 24.8 C 18.66 g/m*3 24.8 C 1.6 km/h
120 20-07-2015 17:55:00 24.8 C 18.21 g/m*3 24.8 C 8.1 km/h
121 20-07-2015 18:00:00 24.8 C 17.53 g/m*3 24.8 C 8.1 km/h
122 20-07-2015 18:05:00 24.9 C 18.08 g/m*3 24.9 C 3.2 km/h
123 20-07-2015 18:10:00 24.8 C 17.75 g/m*3 24.8 C 3.2 km/h
124 20-07-2015 18:15:00 24.7 C 17.88 g/m*3 24.7 C 6.4 km/h
125 20-07-2015 18:20:00 24.7 C 17.43 g/m*3 24.7 C 1.6 km/h
Sensor: Nr:Datum:Temp:Abs-Feuchte:Windchill:Wind:
Aussen-T/F 126 20-07-2015 18:25:00 24.7 C 17.88 g/m*3 24.7 C 4.8 km/h
127 20-07-2015 18:30:00 24.6 C 18.01 g/m*3 24.6 C 3.2 km/h
128 20-07-2015 18:35:00 24.5 C 18.58 g/m*3 24.5 C 1.6 km/h
129 20-07-2015 18:40:00 24.2 C 18.7 g/m*3 24.2 C 1.6 km/h
130 20-07-2015 18:45:00 23.9 C 18.17 g/m*3 23.9 C 1.6 km/h
131 20-07-2015 18:50:00 23.9 C 17.74 g/m*3 23.9 C 1.6 km/h
132 20-07-2015 18:55:00 24.1 C 18.6 g/m*3 24.1 C 1.6 km/h
133 20-07-2015 19:00:00 23.9 C 18.39 g/m*3 23.9 C 1.6 km/h
134 20-07-2015 19:05:00 23.8 C 18.28 g/m*3 23.8 C 1.6 km/h
135 20-07-2015 19:10:00 23.8 C 18.07 g/m*3 23.8 C 6.4 km/h
136 20-07-2015 19:15:00 23.9 C 17.96 g/m*3 23.9 C 1.6 km/h
137 20-07-2015 19:20:00 23.8 C 18.07 g/m*3 23.8 C 1.6 km/h
138 20-07-2015 19:25:00 23.6 C 18.08 g/m*3 23.6 C 1.6 km/h
139 20-07-2015 19:30:00 23.4 C 18.29 g/m*3 23.4 C 0 km/h
140 20-07-2015 19:35:00 23.1 C 18.19 g/m*3 23.1 C 1.6 km/h
141 20-07-2015 19:40:00 22.9 C 17.98 g/m*3 22.9 C 1.6 km/h
142 20-07-2015 19:45:00 22.9 C 18.19 g/m*3 22.9 C 1.6 km/h
143 20-07-2015 19:50:00 22.8 C 18.08 g/m*3 22.8 C 0 km/h
144 20-07-2015 19:55:00 22.6 C 18.08 g/m*3 22.6 C 1.6 km/h
145 20-07-2015 20:00:00 22.4 C 17.87 g/m*3 22.4 C 1.6 km/h
146 20-07-2015 20:05:00 22.4 C 17.68 g/m*3 22.4 C 16.1 km/h
147 20-07-2015 20:10:00 22.7 C 17.78 g/m*3 22.7 C 16.1 km/h
148 20-07-2015 20:15:00 22.7 C 17.78 g/m*3 22.7 C 1.6 km/h
149 20-07-2015 20:20:00 22.7 C 17.98 g/m*3 22.7 C 1.6 km/h
150 20-07-2015 20:25:00 22.5 C 17.78 g/m*3 22.5 C 0 km/h
Sensor: Nr:Datum:Temp:Abs-Feuchte:Windchill:Wind:
Aussen-T/F 151 20-07-2015 20:30:00 22.4 C 17.87 g/m*3 22.4 C 0 km/h
152 20-07-2015 20:35:00 22.3 C 17.77 g/m*3 22.3 C 1.6 km/h
153 20-07-2015 20:40:00 22.2 C 17.67 g/m*3 22.2 C 1.6 km/h
154 20-07-2015 20:45:00 22.1 C 17.57 g/m*3 22.1 C 1.6 km/h
155 20-07-2015 20:50:00 22 C 17.47 g/m*3 22 C 1.6 km/h
156 20-07-2015 20:55:00 21.9 C 17.56 g/m*3 21.9 C 1.6 km/h
157 20-07-2015 21:00:00 21.8 C 17.46 g/m*3 21.8 C 1.6 km/h
158 20-07-2015 21:05:00 21.8 C 17.46 g/m*3 21.8 C 0 km/h
159 20-07-2015 21:10:00 21.7 C 17.36 g/m*3 21.7 C 0 km/h
160 20-07-2015 21:15:00 21.6 C 17.45 g/m*3 21.6 C 0 km/h
161 20-07-2015 21:20:00 21.5 C 17.35 g/m*3 21.5 C 0 km/h
162 20-07-2015 21:25:00 21.4 C 17.25 g/m*3 21.4 C 0 km/h
163 20-07-2015 21:30:00 21.3 C 17.34 g/m*3 21.3 C 1.6 km/h
164 20-07-2015 21:35:00 21.4 C 17.44 g/m*3 21.4 C 1.6 km/h
165 20-07-2015 21:40:00 21.4 C 17.44 g/m*3 21.4 C 0 km/h
166 20-07-2015 21:45:00 21.4 C 17.25 g/m*3 21.4 C 1.6 km/h
167 20-07-2015 21:50:00 21.3 C 17.34 g/m*3 21.3 C 0 km/h
168 20-07-2015 21:55:00 21.3 C 17.34 g/m*3 21.3 C 0 km/h
169 20-07-2015 22:00:00 21.2 C 17.23 g/m*3 21.2 C 0 km/h
170 20-07-2015 22:05:00 21.1 C 17.14 g/m*3 21.1 C 0 km/h
171 20-07-2015 22:10:00 20.9 C 16.94 g/m*3 20.9 C 0 km/h
172 20-07-2015 22:15:00 20.8 C 16.84 g/m*3 20.8 C 1.6 km/h
173 20-07-2015 22:20:00 20.7 C 16.74 g/m*3 20.7 C 0 km/h
174 20-07-2015 22:25:00 20.6 C 16.64 g/m*3 20.6 C 0 km/h
175 20-07-2015 22:30:00 20.5 C 16.55 g/m*3 20.5 C 0 km/h
Sensor: Nr:Datum:Temp:Abs-Feuchte:Windchill:Wind:
Aussen-T/F 176 20-07-2015 22:35:00 20.4 C 16.45 g/m*3 20.4 C 0 km/h
177 20-07-2015 22:40:00 20.4 C 16.63 g/m*3 20.4 C 0 km/h
178 20-07-2015 22:45:00 20.3 C 16.36 g/m*3 20.3 C 1.6 km/h
179 20-07-2015 22:50:00 20.3 C 16.53 g/m*3 20.3 C 1.6 km/h
180 20-07-2015 22:55:00 20.3 C 16.53 g/m*3 20.3 C 1.6 km/h
181 21-07-2015 02:25:00 18.7 C 15.21 g/m*3 18.7 C 0 km/h
182 21-07-2015 02:30:00 18.7 C 15.21 g/m*3 18.7 C 0 km/h
183 21-07-2015 02:35:00 18.8 C 15.46 g/m*3 18.8 C 0 km/h
184 21-07-2015 02:40:00 18.8 C 15.46 g/m*3 18.8 C 0 km/h
185 21-07-2015 03:55:00 19 C 15.64 g/m*3 19 C 0 km/h
186 21-07-2015 04:00:00 19 C 15.64 g/m*3 19 C 0 km/h
187 21-07-2015 04:05:00 18.9 C 15.55 g/m*3 18.9 C 0 km/h
188 21-07-2015 04:10:00 18.9 C 15.55 g/m*3 18.9 C 0 km/h
189 21-07-2015 04:15:00 18.9 C 15.55 g/m*3 18.9 C 0 km/h
190 21-07-2015 04:20:00 18.8 C 15.46 g/m*3 18.8 C 1.6 km/h
191 21-07-2015 04:25:00 18.8 C 15.46 g/m*3 18.8 C 3.2 km/h
192 21-07-2015 04:30:00 18.8 C 15.46 g/m*3 18.8 C 1.6 km/h
193 21-07-2015 05:30:00 18.3 C 15.01 g/m*3 18.3 C 0 km/h
194 21-07-2015 05:35:00 18.3 C 15.01 g/m*3 18.3 C 0 km/h
195 21-07-2015 07:25:00 18.4 C 15.26 g/m*3 18.4 C 1.6 km/h
196 21-07-2015 07:30:00 18.6 C 15.28 g/m*3 18.6 C 0 km/h
197 21-07-2015 07:35:00 18.7 C 15.37 g/m*3 18.7 C 3.2 km/h
198 21-07-2015 07:40:00 18.8 C 15.62 g/m*3 18.8 C 4.8 km/h
199 21-07-2015 07:45:00 18.8 C 15.62 g/m*3 18.8 C 4.8 km/h
200 21-07-2015 08:05:00 19.9 C 16.15 g/m*3 19.9 C 8.1 km/h
Sensor: Nr:Datum:Temp:Abs-Feuchte:Windchill:Wind:
Aussen-T/F 201 21-07-2015 08:10:00 20.3 C 16.36 g/m*3 20.3 C 4.8 km/h
202 21-07-2015 08:15:00 20.7 C 16.38 g/m*3 20.7 C 8.1 km/h
203 21-07-2015 08:20:00 21.1 C 16.58 g/m*3 21.1 C 8.1 km/h
204 21-07-2015 08:25:00 21.4 C 16.5 g/m*3 21.4 C 4.8 km/h
205 21-07-2015 08:30:00 21.7 C 16.6 g/m*3 21.7 C 8.1 km/h
206 21-07-2015 08:35:00 21.9 C 16.6 g/m*3 21.9 C 11.3 km/h
207 21-07-2015 08:40:00 22 C 16.5 g/m*3 22 C 11.3 km/h
208 21-07-2015 08:45:00 22.2 C 16.69 g/m*3 22.2 C 11.3 km/h
209 21-07-2015 08:50:00 22.2 C 16.69 g/m*3 22.2 C 6.4 km/h
210 21-07-2015 08:55:00 22.7 C 17.17 g/m*3 22.7 C 9.7 km/h
211 21-07-2015 09:00:00 22.8 C 17.27 g/m*3 22.8 C 12.9 km/h
212 21-07-2015 09:05:00 22.7 C 16.57 g/m*3 22.7 C 12.9 km/h
213 21-07-2015 09:10:00 22.7 C 16.57 g/m*3 22.7 C 12.9 km/h
214 21-07-2015 09:15:00 22.6 C 16.47 g/m*3 22.6 C 12.9 km/h
215 21-07-2015 09:20:00 22.5 C 16.58 g/m*3 22.5 C 4.8 km/h
216 21-07-2015 09:25:00 22.5 C 16.38 g/m*3 22.5 C 4.8 km/h
217 21-07-2015 09:30:00 22.3 C 16.19 g/m*3 22.3 C 9.7 km/h
218 21-07-2015 09:35:00 22.3 C 16.19 g/m*3 22.3 C 6.4 km/h
219 21-07-2015 09:40:00 22.8 C 16.66 g/m*3 22.8 C 6.4 km/h
220 21-07-2015 09:45:00 22.8 C 16.46 g/m*3 22.8 C 6.4 km/h
221 21-07-2015 09:50:00 22.8 C 16.46 g/m*3 22.8 C 9.7 km/h
222 21-07-2015 09:55:00 22.9 C 16.55 g/m*3 22.9 C 4.8 km/h
223 21-07-2015 10:00:00 22.9 C 16.55 g/m*3 22.9 C 3.2 km/h
224 21-07-2015 10:05:00 23.2 C 16.84 g/m*3 23.2 C 6.4 km/h
225 21-07-2015 10:10:00 23.4 C 16.61 g/m*3 23.4 C 11.3 km/h
Sensor: Nr:Datum:Temp:Abs-Feuchte:Windchill:Wind:
Aussen-T/F 226 21-07-2015 10:15:00 23.4 C 16.4 g/m*3 23.4 C 11.3 km/h
227 21-07-2015 10:20:00 23.5 C 16.71 g/m*3 23.5 C 9.7 km/h
228 21-07-2015 10:25:00 23.7 C 16.68 g/m*3 23.7 C 6.4 km/h
229 21-07-2015 10:30:00 23.9 C 16.66 g/m*3 23.9 C 11.3 km/h
230 21-07-2015 10:35:00 24.2 C 16.5 g/m*3 24.2 C 17.7 km/h
231 21-07-2015 10:40:00 24.3 C 16.38 g/m*3 24.3 C 17.7 km/h
232 21-07-2015 10:45:00 24.4 C 16.47 g/m*3 24.4 C 16.1 km/h
233 21-07-2015 10:50:00 24.6 C 16.66 g/m*3 24.6 C 12.9 km/h
234 21-07-2015 10:55:00 24.8 C 16.62 g/m*3 24.8 C 14.5 km/h
235 21-07-2015 11:00:00 24.6 C 16.43 g/m*3 24.6 C 9.7 km/h
236 21-07-2015 11:05:00 24.6 C 16.66 g/m*3 24.6 C 11.3 km/h
237 21-07-2015 11:10:00 24.8 C 17.07 g/m*3 24.8 C 9.7 km/h
238 21-07-2015 11:15:00 24.9 C 16.48 g/m*3 24.9 C 11.3 km/h
239 21-07-2015 11:20:00 25 C 16.8 g/m*3 25 C 8.1 km/h
240 21-07-2015 11:25:00 24.9 C 16.71 g/m*3 24.9 C 11.3 km/h
241 21-07-2015 11:30:00 25 C 16.57 g/m*3 25 C 12.9 km/h
242 21-07-2015 11:35:00 25.2 C 16.76 g/m*3 25.2 C 11.3 km/h
243 21-07-2015 11:40:00 25.4 C 16.95 g/m*3 25.4 C 9.7 km/h
244 21-07-2015 11:45:00 25.6 C 16.67 g/m*3 25.6 C 11.3 km/h
245 21-07-2015 11:50:00 25.7 C 17.24 g/m*3 25.7 C 9.7 km/h
246 21-07-2015 11:55:00 25.9 C 16.95 g/m*3 25.9 C 6.4 km/h
247 21-07-2015 12:00:00 26.2 C 16.49 g/m*3 26.2 C 9.7 km/h
248 21-07-2015 12:05:00 26.6 C 17.12 g/m*3 26.6 C 11.3 km/h
249 21-07-2015 12:10:00 26.5 C 16.27 g/m*3 26.5 C 11.3 km/h
250 21-07-2015 12:15:00 26.3 C 16.34 g/m*3 26.3 C 11.3 km/h
Sensor: Nr:Datum:Temp:Abs-Feuchte:Windchill:Wind:
Aussen-T/F 251 21-07-2015 12:20:00 26.4 C 16.43 g/m*3 26.4 C 11.3 km/h
252 21-07-2015 12:25:00 26.7 C 16.96 g/m*3 26.7 C 8.1 km/h
253 21-07-2015 12:30:00 26.8 C 16.54 g/m*3 26.8 C 11.3 km/h
254 21-07-2015 12:35:00 26.9 C 16.64 g/m*3 26.9 C 14.5 km/h
255 21-07-2015 12:40:00 27.2 C 16.65 g/m*3 27.2 C 8.1 km/h
256 21-07-2015 12:45:00 27.4 C 16.84 g/m*3 27.4 C 11.3 km/h
257 21-07-2015 12:50:00 27.8 C 16.41 g/m*3 27.8 C 19.3 km/h
258 21-07-2015 12:55:00 27.9 C 16.77 g/m*3 27.9 C 11.3 km/h
259 21-07-2015 13:00:00 28.2 C 16.77 g/m*3 28.2 C 14.5 km/h
260 21-07-2015 13:05:00 28.4 C 16.68 g/m*3 28.4 C 12.9 km/h
261 21-07-2015 13:10:00 28.6 C 16.58 g/m*3 28.6 C 11.3 km/h
262 21-07-2015 13:15:00 28.7 C 16.39 g/m*3 28.7 C 14.5 km/h
263 21-07-2015 13:20:00 28.8 C 16.48 g/m*3 28.8 C 9.7 km/h
264 21-07-2015 13:25:00 28.8 C 16.76 g/m*3 28.8 C 14.5 km/h
265 21-07-2015 13:30:00 28.7 C 16.39 g/m*3 28.7 C 11.3 km/h
266 21-07-2015 13:35:00 28.4 C 16.4 g/m*3 28.4 C 9.7 km/h
267 21-07-2015 13:40:00 28.4 C 16.4 g/m*3 28.4 C 8.1 km/h
268 21-07-2015 13:45:00 28.8 C 16.48 g/m*3 28.8 C 11.3 km/h
269 21-07-2015 13:50:00 29 C 16.66 g/m*3 29 C 9.7 km/h
270 21-07-2015 13:55:00 29.4 C 17.03 g/m*3 29.4 C 9.7 km/h
271 21-07-2015 14:00:00 29.7 C 16.11 g/m*3 29.7 C 9.7 km/h
272 21-07-2015 14:05:00 29.7 C 16.41 g/m*3 29.7 C 9.7 km/h
273 21-07-2015 14:10:00 29.9 C 16.29 g/m*3 29.9 C 16.1 km/h
274 21-07-2015 14:15:00 29.7 C 16.11 g/m*3 29.7 C 12.9 km/h
275 21-07-2015 14:20:00 29.4 C 15.85 g/m*3 29.4 C 4.8 km/h
Sensor: Nr:Datum:Temp:Abs-Feuchte:Windchill:Wind:
Aussen-T/F 276 21-07-2015 14:25:00 29.1 C 17.04 g/m*3 29.1 C 4.8 km/h
277 21-07-2015 14:30:00 28.9 C 17.14 g/m*3 28.9 C 1.6 km/h
278 21-07-2015 14:35:00 29.2 C 15.97 g/m*3 29.2 C 11.3 km/h
279 21-07-2015 14:40:00 29.3 C 16.35 g/m*3 29.3 C 11.3 km/h
280 21-07-2015 14:45:00 29.1 C 16.46 g/m*3 29.1 C 9.7 km/h
281 21-07-2015 14:50:00 29 C 17.23 g/m*3 29 C 3.2 km/h
282 21-07-2015 14:55:00 28.7 C 16.39 g/m*3 28.7 C 9.7 km/h
283 21-07-2015 15:00:00 28.6 C 17.42 g/m*3 28.6 C 0 km/h
284 21-07-2015 15:05:00 28.4 C 16.96 g/m*3 28.4 C 0 km/h
285 21-07-2015 15:10:00 28.5 C 18.45 g/m*3 28.5 C 8.1 km/h
286 21-07-2015 15:15:00 28.8 C 16.19 g/m*3 28.8 C 12.9 km/h
287 21-07-2015 15:20:00 29.1 C 16.75 g/m*3 29.1 C 6.4 km/h
288 21-07-2015 15:25:00 29.4 C 16.15 g/m*3 29.4 C 11.3 km/h
289 21-07-2015 15:30:00 29.8 C 16.8 g/m*3 29.8 C 16.1 km/h
290 21-07-2015 15:35:00 30.4 C 16.11 g/m*3 30.4 C 12.9 km/h
291 21-07-2015 15:40:00 30.8 C 16.46 g/m*3 30.8 C 11.3 km/h
292 21-07-2015 15:45:00 30.8 C 15.83 g/m*3 30.8 C 16.1 km/h
293 21-07-2015 15:50:00 30.8 C 16.15 g/m*3 30.8 C 12.9 km/h
294 21-07-2015 15:55:00 30.9 C 16.55 g/m*3 30.9 C 12.9 km/h
295 21-07-2015 16:00:00 30.9 C 15.6 g/m*3 30.9 C 14.5 km/h
296 21-07-2015 16:05:00 30.7 C 16.06 g/m*3 30.7 C 14.5 km/h
297 21-07-2015 16:10:00 30.7 C 15.75 g/m*3 30.7 C 19.3 km/h
298 21-07-2015 16:15:00 31.1 C 16.09 g/m*3 31.1 C 12.9 km/h
299 21-07-2015 16:20:00 31.2 C 15.2 g/m*3 31.2 C 19.3 km/h
300 21-07-2015 16:25:00 31.2 C 15.85 g/m*3 31.2 C 17.7 km/h
Sensor: Nr:Datum:Temp:Abs-Feuchte:Windchill:Wind:
Aussen-T/F 301 21-07-2015 16:30:00 31.6 C 15.53 g/m*3 31.6 C 19.3 km/h
302 21-07-2015 16:35:00 31.9 C 15.78 g/m*3 31.9 C 11.3 km/h
303 21-07-2015 16:40:00 31.8 C 15.7 g/m*3 31.8 C 12.9 km/h
304 21-07-2015 16:45:00 31.4 C 15.69 g/m*3 31.4 C 11.3 km/h
305 21-07-2015 16:50:00 31.7 C 15.95 g/m*3 31.7 C 11.3 km/h
306 21-07-2015 16:55:00 31.9 C 15.78 g/m*3 31.9 C 11.3 km/h
307 21-07-2015 17:00:00 32.3 C 16.12 g/m*3 32.3 C 12.9 km/h
308 21-07-2015 17:05:00 32.3 C 15.78 g/m*3 32.3 C 12.9 km/h
309 21-07-2015 17:10:00 32 C 15.87 g/m*3 32 C 9.7 km/h
310 21-07-2015 17:15:00 32 C 16.2 g/m*3 32 C 11.3 km/h
311 21-07-2015 17:20:00 32.1 C 15.61 g/m*3 32.1 C 12.9 km/h
312 21-07-2015 17:25:00 32.2 C 15.7 g/m*3 32.2 C 14.5 km/h
313 21-07-2015 17:30:00 32.4 C 15.52 g/m*3 32.4 C 11.3 km/h
314 21-07-2015 17:35:00 32.6 C 16.03 g/m*3 32.6 C 9.7 km/h
315 21-07-2015 17:40:00 32.6 C 15.68 g/m*3 32.6 C 8.1 km/h
316 21-07-2015 17:45:00 32.6 C 15.33 g/m*3 32.6 C 16.1 km/h
317 21-07-2015 17:50:00 32.4 C 15.52 g/m*3 32.4 C 12.9 km/h
318 21-07-2015 17:55:00 32.3 C 15.44 g/m*3 32.3 C 11.3 km/h
319 21-07-2015 18:00:00 31.9 C 15.45 g/m*3 31.9 C 14.5 km/h
320 21-07-2015 18:05:00 31.9 C 15.45 g/m*3 31.9 C 11.3 km/h
321 21-07-2015 18:10:00 32.3 C 15.78 g/m*3 32.3 C 14.5 km/h
322 21-07-2015 18:15:00 32.3 C 15.44 g/m*3 32.3 C 11.3 km/h
323 21-07-2015 18:20:00 31.7 C 15.62 g/m*3 31.7 C 6.4 km/h
324 21-07-2015 18:25:00 31.1 C 15.12 g/m*3 31.1 C 8.1 km/h
325 21-07-2015 18:30:00 30.7 C 16.38 g/m*3 30.7 C 3.2 km/h
Sensor: Nr:Datum:Temp:Abs-Feuchte:Windchill:Wind:
Aussen-T/F 326 21-07-2015 18:35:00 30.6 C 15.66 g/m*3 30.6 C 4.8 km/h
327 21-07-2015 18:40:00 30.9 C 15.28 g/m*3 30.9 C 4.8 km/h
328 21-07-2015 18:45:00 31.2 C 15.53 g/m*3 31.2 C 8.1 km/h
329 21-07-2015 18:50:00 30.8 C 16.78 g/m*3 30.8 C 8.1 km/h
330 21-07-2015 18:55:00 30.1 C 16.16 g/m*3 30.1 C 4.8 km/h
331 21-07-2015 19:00:00 29.7 C 16.71 g/m*3 29.7 C 9.7 km/h
332 21-07-2015 19:05:00 29.6 C 16.62 g/m*3 29.6 C 8.1 km/h
333 21-07-2015 19:10:00 29.4 C 17.03 g/m*3 29.4 C 6.4 km/h
334 21-07-2015 19:15:00 29.6 C 16.62 g/m*3 29.6 C 11.3 km/h
335 21-07-2015 19:20:00 30 C 16.68 g/m*3 30 C 6.4 km/h
336 21-07-2015 19:25:00 30.3 C 17.26 g/m*3 30.3 C 9.7 km/h
337 21-07-2015 19:30:00 30.4 C 17.04 g/m*3 30.4 C 8.1 km/h
338 21-07-2015 19:35:00 30.3 C 17.26 g/m*3 30.3 C 6.4 km/h
339 21-07-2015 19:40:00 30.1 C 17.07 g/m*3 30.1 C 8.1 km/h
340 21-07-2015 19:45:00 29.8 C 17.4 g/m*3 29.8 C 8.1 km/h
341 21-07-2015 19:50:00 29.6 C 17.51 g/m*3 29.6 C 8.1 km/h
342 21-07-2015 19:55:00 29.4 C 17.61 g/m*3 29.4 C 8.1 km/h
343 21-07-2015 20:00:00 29.2 C 17.13 g/m*3 29.2 C 6.4 km/h
344 21-07-2015 20:05:00 29.1 C 17.62 g/m*3 29.1 C 4.8 km/h
345 21-07-2015 20:10:00 28.8 C 17.62 g/m*3 28.8 C 8.1 km/h
346 21-07-2015 20:15:00 28.7 C 17.52 g/m*3 28.7 C 9.7 km/h
347 21-07-2015 20:20:00 28.6 C 17.7 g/m*3 28.6 C 9.7 km/h
348 21-07-2015 20:25:00 28.3 C 17.42 g/m*3 28.3 C 4.8 km/h
349 21-07-2015 20:30:00 28.2 C 17.6 g/m*3 28.2 C 6.4 km/h
350 21-07-2015 20:35:00 28.1 C 17.5 g/m*3 28.1 C 3.2 km/h
Sensor: Nr:Datum:Temp:Abs-Feuchte:Windchill:Wind:
Aussen-T/F 351 21-07-2015 20:40:00 27.9 C 17.58 g/m*3 27.9 C 8.1 km/h
352 21-07-2015 20:45:00 27.7 C 17.39 g/m*3 27.7 C 6.4 km/h
353 21-07-2015 20:50:00 27.6 C 17.56 g/m*3 27.6 C 4.8 km/h
354 21-07-2015 20:55:00 27.4 C 17.37 g/m*3 27.4 C 4.8 km/h
355 21-07-2015 21:00:00 27.2 C 17.7 g/m*3 27.2 C 3.2 km/h
356 21-07-2015 21:05:00 26.9 C 17.4 g/m*3 26.9 C 4.8 km/h
357 21-07-2015 21:10:00 26.6 C 17.37 g/m*3 26.6 C 3.2 km/h
358 21-07-2015 21:15:00 26.2 C 17.73 g/m*3 26.2 C 0 km/h
359 21-07-2015 21:20:00 25.9 C 17.67 g/m*3 25.9 C 0 km/h
360 21-07-2015 21:25:00 25.9 C 17.67 g/m*3 25.9 C 0 km/h
361 21-07-2015 21:30:00 24.9 C 16.71 g/m*3 24.9 C 0 km/h
362 21-07-2015 21:35:00 24.5 C 17.68 g/m*3 24.5 C 1.6 km/h
363 21-07-2015 21:40:00 24.4 C 17.58 g/m*3 24.4 C 0 km/h
364 21-07-2015 21:45:00 24.2 C 17.82 g/m*3 24.2 C 0 km/h
365 21-07-2015 21:50:00 23.9 C 17.74 g/m*3 23.9 C 0 km/h
366 21-07-2015 21:55:00 23.7 C 17.75 g/m*3 23.7 C 0 km/h
367 21-07-2015 22:00:00 23.4 C 17.45 g/m*3 23.4 C 0 km/h
368 21-07-2015 22:05:00 23.3 C 17.56 g/m*3 23.3 C 0 km/h
369 21-07-2015 22:10:00 23.2 C 17.46 g/m*3 23.2 C 0 km/h
370 21-07-2015 22:15:00 23.1 C 17.36 g/m*3 23.1 C 0 km/h
371 21-07-2015 22:20:00 22.9 C 17.37 g/m*3 22.9 C 0 km/h
372 21-07-2015 22:25:00 22.8 C 17.27 g/m*3 22.8 C 0 km/h
373 21-07-2015 22:30:00 22.8 C 17.48 g/m*3 22.8 C 0 km/h
374 21-07-2015 22:35:00 22.6 C 17.28 g/m*3 22.6 C 0 km/h
375 21-07-2015 22:40:00 22.5 C 17.18 g/m*3 22.5 C 1.6 km/h
Sensor: Nr:Datum:Temp:Abs-Feuchte:Windchill:Wind:
Aussen-T/F 376 21-07-2015 22:45:00 22.4 C 17.28 g/m*3 22.4 C 0 km/h
377 21-07-2015 22:50:00 22.3 C 17.18 g/m*3 22.3 C 0 km/h
378 21-07-2015 22:55:00 22.3 C 17.18 g/m*3 22.3 C 0 km/h
379 21-07-2015 23:00:00 22.2 C 17.28 g/m*3 22.2 C 0 km/h
380 21-07-2015 23:05:00 22.2 C 17.28 g/m*3 22.2 C 0 km/h
381 21-07-2015 23:10:00 22.1 C 17.18 g/m*3 22.1 C 0 km/h
382 21-07-2015 23:15:00 22 C 17.08 g/m*3 22 C 0 km/h
383 21-07-2015 23:20:00 21.9 C 16.98 g/m*3 21.9 C 0 km/h
384 21-07-2015 23:25:00 21.9 C 17.17 g/m*3 21.9 C 0 km/h
385 21-07-2015 23:30:00 21.8 C 17.08 g/m*3 21.8 C 0 km/h
386 21-07-2015 23:35:00 21.8 C 17.08 g/m*3 21.8 C 0 km/h
387 21-07-2015 23:40:00 21.7 C 16.98 g/m*3 21.7 C 0 km/h
388 21-07-2015 23:45:00 21.7 C 16.98 g/m*3 21.7 C 0 km/h
389 21-07-2015 23:50:00 21.6 C 16.88 g/m*3 21.6 C 0 km/h
390 21-07-2015 23:55:00 21.6 C 16.88 g/m*3 21.6 C 0 km/h
391 22-07-2015 00:00:00 21.6 C 17.07 g/m*3 21.6 C 0 km/h
392 22-07-2015 00:05:00 21.5 C 16.97 g/m*3 21.5 C 0 km/h
393 22-07-2015 00:10:00 21.5 C 16.97 g/m*3 21.5 C 0 km/h
394 22-07-2015 00:15:00 21.4 C 16.87 g/m*3 21.4 C 0 km/h
395 22-07-2015 00:20:00 21.4 C 16.87 g/m*3 21.4 C 0 km/h
396 22-07-2015 00:25:00 21.4 C 16.87 g/m*3 21.4 C 0 km/h
397 22-07-2015 00:30:00 21.3 C 16.78 g/m*3 21.3 C 0 km/h
398 22-07-2015 00:35:00 21.3 C 16.78 g/m*3 21.3 C 0 km/h
399 22-07-2015 00:40:00 21.2 C 16.86 g/m*3 21.2 C 0 km/h
400 22-07-2015 00:45:00 21.2 C 16.68 g/m*3 21.2 C 0 km/h
Sensor: Nr:Datum:Temp:Abs-Feuchte:Windchill:Wind:
Aussen-T/F 401 22-07-2015 00:50:00 21.1 C 16.77 g/m*3 21.1 C 0 km/h
402 22-07-2015 00:55:00 20.9 C 16.57 g/m*3 20.9 C 0 km/h
403 22-07-2015 01:00:00 20.9 C 16.57 g/m*3 20.9 C 0 km/h
404 22-07-2015 01:05:00 20.9 C 16.57 g/m*3 20.9 C 0 km/h
405 22-07-2015 01:10:00 20.8 C 16.66 g/m*3 20.8 C 0 km/h
406 22-07-2015 01:15:00 20.8 C 16.66 g/m*3 20.8 C 0 km/h
407 22-07-2015 01:20:00 20.7 C 16.56 g/m*3 20.7 C 0 km/h
408 22-07-2015 01:25:00 20.7 C 16.56 g/m*3 20.7 C 0 km/h
409 22-07-2015 01:30:00 20.7 C 16.56 g/m*3 20.7 C 0 km/h
410 22-07-2015 01:35:00 20.7 C 16.56 g/m*3 20.7 C 0 km/h
411 22-07-2015 01:40:00 20.7 C 16.56 g/m*3 20.7 C 0 km/h
412 22-07-2015 01:45:00 20.6 C 16.47 g/m*3 20.6 C 0 km/h
413 22-07-2015 01:50:00 20.6 C 16.47 g/m*3 20.6 C 0 km/h
414 22-07-2015 01:55:00 20.5 C 16.37 g/m*3 20.5 C 0 km/h
415 22-07-2015 02:00:00 20.4 C 16.28 g/m*3 20.4 C 0 km/h
416 22-07-2015 02:05:00 20.3 C 16.36 g/m*3 20.3 C 0 km/h
417 22-07-2015 02:10:00 20.3 C 16.36 g/m*3 20.3 C 0 km/h
418 22-07-2015 02:15:00 20.3 C 16.36 g/m*3 20.3 C 0 km/h
419 22-07-2015 02:20:00 20.2 C 16.26 g/m*3 20.2 C 0 km/h
420 22-07-2015 02:25:00 20.2 C 16.26 g/m*3 20.2 C 0 km/h
421 22-07-2015 02:30:00 20.2 C 16.26 g/m*3 20.2 C 0 km/h
422 22-07-2015 02:35:00 20.1 C 16.17 g/m*3 20.1 C 0 km/h
423 22-07-2015 02:40:00 20.1 C 16.17 g/m*3 20.1 C 0 km/h
424 22-07-2015 02:45:00 20 C 16.07 g/m*3 20 C 0 km/h
425 22-07-2015 02:50:00 19.9 C 15.98 g/m*3 19.9 C 0 km/h
Sensor: Nr:Datum:Temp:Abs-Feuchte:Windchill:Wind:
Aussen-T/F 426 22-07-2015 02:55:00 19.8 C 15.89 g/m*3 19.8 C 0 km/h
427 22-07-2015 03:00:00 19.8 C 15.89 g/m*3 19.8 C 0 km/h
428 22-07-2015 03:05:00 19.7 C 15.79 g/m*3 19.7 C 0 km/h
429 22-07-2015 03:10:00 19.7 C 15.79 g/m*3 19.7 C 0 km/h
430 22-07-2015 03:15:00 19.6 C 15.7 g/m*3 19.6 C 0 km/h
431 22-07-2015 03:20:00 19.6 C 15.7 g/m*3 19.6 C 0 km/h
432 22-07-2015 03:25:00 19.4 C 15.52 g/m*3 19.4 C 0 km/h
433 22-07-2015 03:30:00 19.4 C 15.68 g/m*3 19.4 C 0 km/h
434 22-07-2015 03:35:00 19.4 C 15.68 g/m*3 19.4 C 0 km/h
435 22-07-2015 03:40:00 19.3 C 15.59 g/m*3 19.3 C 0 km/h
436 22-07-2015 03:45:00 19.3 C 15.59 g/m*3 19.3 C 0 km/h
437 22-07-2015 03:50:00 19.3 C 15.59 g/m*3 19.3 C 0 km/h
438 22-07-2015 03:55:00 19.3 C 15.59 g/m*3 19.3 C 0 km/h
439 22-07-2015 04:00:00 19.2 C 15.5 g/m*3 19.2 C 0 km/h
440 22-07-2015 04:05:00 19.2 C 15.5 g/m*3 19.2 C 0 km/h
441 22-07-2015 04:10:00 19.2 C 15.5 g/m*3 19.2 C 0 km/h
442 22-07-2015 04:15:00 19.2 C 15.5 g/m*3 19.2 C 0 km/h
443 22-07-2015 04:20:00 19.2 C 15.5 g/m*3 19.2 C 0 km/h
444 22-07-2015 04:25:00 19.2 C 15.5 g/m*3 19.2 C 0 km/h
445 22-07-2015 04:30:00 19.2 C 15.5 g/m*3 19.2 C 0 km/h
446 22-07-2015 04:35:00 19.1 C 15.41 g/m*3 19.1 C 0 km/h
447 22-07-2015 04:40:00 19 C 15.48 g/m*3 19 C 0 km/h
448 22-07-2015 04:45:00 18.9 C 15.39 g/m*3 18.9 C 0 km/h
449 22-07-2015 04:50:00 18.9 C 15.23 g/m*3 18.9 C 0 km/h
450 22-07-2015 04:55:00 18.8 C 15.14 g/m*3 18.8 C 0 km/h
Sensor: Nr:Datum:Temp:Abs-Feuchte:Windchill:Wind:
Aussen-T/F 451 22-07-2015 05:00:00 18.8 C 15.3 g/m*3 18.8 C 0 km/h
452 22-07-2015 05:05:00 18.8 C 15.3 g/m*3 18.8 C 0 km/h
453 22-07-2015 05:10:00 18.8 C 15.3 g/m*3 18.8 C 0 km/h
454 22-07-2015 05:15:00 18.8 C 15.3 g/m*3 18.8 C 0 km/h
455 22-07-2015 05:20:00 18.7 C 15.21 g/m*3 18.7 C 0 km/h
456 22-07-2015 05:25:00 18.7 C 15.21 g/m*3 18.7 C 0 km/h
457 22-07-2015 05:30:00 18.6 C 15.12 g/m*3 18.6 C 0 km/h
458 22-07-2015 05:35:00 18.6 C 15.12 g/m*3 18.6 C 0 km/h
459 22-07-2015 05:40:00 18.7 C 15.21 g/m*3 18.7 C 0 km/h
460 22-07-2015 05:45:00 18.6 C 15.12 g/m*3 18.6 C 0 km/h
461 22-07-2015 05:50:00 18.6 C 15.12 g/m*3 18.6 C 0 km/h
462 22-07-2015 05:55:00 18.7 C 15.21 g/m*3 18.7 C 0 km/h
463 22-07-2015 06:00:00 18.7 C 15.21 g/m*3 18.7 C 0 km/h
464 22-07-2015 06:05:00 18.7 C 15.21 g/m*3 18.7 C 0 km/h
465 22-07-2015 06:10:00 18.7 C 15.21 g/m*3 18.7 C 0 km/h
466 22-07-2015 06:15:00 18.7 C 15.21 g/m*3 18.7 C 0 km/h
467 22-07-2015 06:20:00 18.7 C 15.37 g/m*3 18.7 C 0 km/h
468 22-07-2015 06:25:00 18.8 C 15.46 g/m*3 18.8 C 0 km/h
469 22-07-2015 06:30:00 18.8 C 15.46 g/m*3 18.8 C 0 km/h
470 22-07-2015 06:35:00 18.8 C 15.46 g/m*3 18.8 C 0 km/h
471 22-07-2015 06:40:00 18.8 C 15.46 g/m*3 18.8 C 0 km/h
472 22-07-2015 06:45:00 18.9 C 15.55 g/m*3 18.9 C 0 km/h
473 22-07-2015 06:50:00 19 C 15.64 g/m*3 19 C 0 km/h
474 22-07-2015 06:55:00 19.1 C 15.74 g/m*3 19.1 C 0 km/h
475 22-07-2015 07:00:00 19.1 C 15.74 g/m*3 19.1 C 0 km/h
Sensor: Nr:Datum:Temp:Abs-Feuchte:Windchill:Wind:
Aussen-T/F 476 22-07-2015 07:05:00 19.2 C 15.83 g/m*3 19.2 C 0 km/h
477 22-07-2015 07:10:00 19.2 C 15.83 g/m*3 19.2 C 0 km/h
478 22-07-2015 07:15:00 19.3 C 15.92 g/m*3 19.3 C 0 km/h
479 22-07-2015 07:20:00 19.3 C 15.92 g/m*3 19.3 C 0 km/h
480 22-07-2015 07:25:00 19.3 C 15.92 g/m*3 19.3 C 0 km/h
481 22-07-2015 07:30:00 19.3 C 15.92 g/m*3 19.3 C 0 km/h
482 22-07-2015 07:35:00 19.3 C 15.92 g/m*3 19.3 C 0 km/h
483 22-07-2015 07:40:00 19.3 C 15.92 g/m*3 19.3 C 1.6 km/h
484 22-07-2015 07:45:00 19.3 C 15.92 g/m*3 19.3 C 3.2 km/h
485 22-07-2015 08:30:00 21.7 C 17.36 g/m*3 21.7 C 0 km/h
486 22-07-2015 08:35:00 21.9 C 17.37 g/m*3 21.9 C 1.6 km/h
487 22-07-2015 08:40:00 22 C 17.27 g/m*3 22 C 3.2 km/h
488 22-07-2015 08:45:00 22.1 C 17.18 g/m*3 22.1 C 4.8 km/h
489 22-07-2015 08:50:00 22.2 C 17.28 g/m*3 22.2 C 8.1 km/h
490 22-07-2015 08:55:00 22.2 C 16.88 g/m*3 22.2 C 4.8 km/h
491 22-07-2015 09:00:00 22.2 C 16.69 g/m*3 22.2 C 6.4 km/h
492 22-07-2015 09:05:00 22.2 C 16.69 g/m*3 22.2 C 4.8 km/h
493 22-07-2015 09:10:00 22.2 C 16.69 g/m*3 22.2 C 4.8 km/h
494 22-07-2015 09:15:00 22.2 C 16.69 g/m*3 22.2 C 1.6 km/h
495 22-07-2015 09:20:00 22.6 C 16.67 g/m*3 22.6 C 4.8 km/h
496 22-07-2015 09:25:00 22.7 C 16.77 g/m*3 22.7 C 6.4 km/h
497 22-07-2015 09:30:00 22.8 C 17.07 g/m*3 22.8 C 4.8 km/h
498 22-07-2015 09:35:00 22.9 C 16.55 g/m*3 22.9 C 4.8 km/h
499 22-07-2015 09:40:00 23.1 C 16.54 g/m*3 23.1 C 8.1 km/h
500 22-07-2015 09:45:00 23.3 C 16.94 g/m*3 23.3 C 11.3 km/h
Sensor: Nr:Datum:Temp:Abs-Feuchte:Windchill:Wind:
Aussen-T/F 501 22-07-2015 09:50:00 23.4 C 16.61 g/m*3 23.4 C 6.4 km/h
502 22-07-2015 09:55:00 23.6 C 16.8 g/m*3 23.6 C 8.1 km/h
503 22-07-2015 10:00:00 23.6 C 17.01 g/m*3 23.6 C 8.1 km/h
504 22-07-2015 10:05:00 23.7 C 17.11 g/m*3 23.7 C 4.8 km/h
505 22-07-2015 10:10:00 23.9 C 17.31 g/m*3 23.9 C 6.4 km/h
506 22-07-2015 10:15:00 24.2 C 17.16 g/m*3 24.2 C 6.4 km/h
507 22-07-2015 10:20:00 24.3 C 16.6 g/m*3 24.3 C 6.4 km/h
508 22-07-2015 10:25:00 24.4 C 16.91 g/m*3 24.4 C 12.9 km/h
509 22-07-2015 10:30:00 24.4 C 16.69 g/m*3 24.4 C 12.9 km/h
510 22-07-2015 10:35:00 24.3 C 16.6 g/m*3 24.3 C 8.1 km/h
511 22-07-2015 10:40:00 24.2 C 16.72 g/m*3 24.2 C 6.4 km/h
512 22-07-2015 10:45:00 24.2 C 16.94 g/m*3 24.2 C 4.8 km/h
513 22-07-2015 10:50:00 24.3 C 17.04 g/m*3 24.3 C 9.7 km/h
514 22-07-2015 10:55:00 24.4 C 16.69 g/m*3 24.4 C 9.7 km/h
515 22-07-2015 11:00:00 24.4 C 16.91 g/m*3 24.4 C 6.4 km/h
516 22-07-2015 11:05:00 24.3 C 16.82 g/m*3 24.3 C 6.4 km/h
517 22-07-2015 11:10:00 24.4 C 16.69 g/m*3 24.4 C 8.1 km/h
518 22-07-2015 11:15:00 24.4 C 17.14 g/m*3 24.4 C 6.4 km/h
519 22-07-2015 11:20:00 24.4 C 16.69 g/m*3 24.4 C 8.1 km/h
520 22-07-2015 11:25:00 24.5 C 17.01 g/m*3 24.5 C 6.4 km/h
521 22-07-2015 11:30:00 24.7 C 17.2 g/m*3 24.7 C 8.1 km/h
522 22-07-2015 11:35:00 24.9 C 17.63 g/m*3 24.9 C 3.2 km/h
523 22-07-2015 11:40:00 25.2 C 17.23 g/m*3 25.2 C 6.4 km/h
524 22-07-2015 11:45:00 25.4 C 17.19 g/m*3 25.4 C 9.7 km/h
525 22-07-2015 11:50:00 25.6 C 17.38 g/m*3 25.6 C 4.8 km/h
Sensor: Nr:Datum:Temp:Abs-Feuchte:Windchill:Wind:
Aussen-T/F 526 22-07-2015 11:55:00 25.5 C 16.81 g/m*3 25.5 C 11.3 km/h
527 22-07-2015 12:00:00 25.4 C 17.19 g/m*3 25.4 C 3.2 km/h
528 22-07-2015 12:05:00 25.5 C 17.28 g/m*3 25.5 C 3.2 km/h
529 22-07-2015 12:10:00 25.6 C 17.62 g/m*3 25.6 C 6.4 km/h
530 22-07-2015 12:15:00 25.6 C 17.62 g/m*3 25.6 C 4.8 km/h
531 22-07-2015 12:20:00 25.8 C 17.82 g/m*3 25.8 C 4.8 km/h
532 22-07-2015 12:25:00 26.1 C 17.14 g/m*3 26.1 C 4.8 km/h
533 22-07-2015 12:30:00 26.2 C 17.48 g/m*3 26.2 C 4.8 km/h
534 22-07-2015 12:35:00 26.4 C 16.68 g/m*3 26.4 C 11.3 km/h
535 22-07-2015 12:40:00 26.7 C 17.21 g/m*3 26.7 C 4.8 km/h
536 22-07-2015 12:45:00 27 C 17.24 g/m*3 27 C 8.1 km/h
537 22-07-2015 12:50:00 27.2 C 17.17 g/m*3 27.2 C 8.1 km/h
538 22-07-2015 12:55:00 27 C 16.99 g/m*3 27 C 9.7 km/h
539 22-07-2015 13:00:00 26.8 C 17.05 g/m*3 26.8 C 6.4 km/h
540 22-07-2015 13:05:00 26.7 C 16.96 g/m*3 26.7 C 1.6 km/h
541 22-07-2015 13:10:00 26.7 C 17.21 g/m*3 26.7 C 6.4 km/h
542 22-07-2015 13:15:00 26.8 C 17.05 g/m*3 26.8 C 6.4 km/h
543 22-07-2015 13:20:00 27 C 17.24 g/m*3 27 C 8.1 km/h
544 22-07-2015 13:25:00 27.1 C 17.34 g/m*3 27.1 C 6.4 km/h
545 22-07-2015 13:30:00 27.2 C 16.65 g/m*3 27.2 C 8.1 km/h
546 22-07-2015 13:35:00 27.2 C 16.65 g/m*3 27.2 C 8.1 km/h
547 22-07-2015 13:40:00 27.2 C 16.65 g/m*3 27.2 C 4.8 km/h
548 22-07-2015 13:45:00 27.3 C 17.01 g/m*3 27.3 C 4.8 km/h
549 22-07-2015 13:50:00 27.4 C 17.1 g/m*3 27.4 C 6.4 km/h
550 22-07-2015 13:55:00 27.7 C 16.85 g/m*3 27.7 C 8.1 km/h
Sensor: Nr:Datum:Temp:Abs-Feuchte:Windchill:Wind:
Aussen-T/F 551 22-07-2015 14:00:00 27.7 C 16.32 g/m*3 27.7 C 6.4 km/h
552 22-07-2015 14:05:00 27.6 C 16.23 g/m*3 27.6 C 9.7 km/h
553 22-07-2015 14:10:00 27.3 C 16.22 g/m*3 27.3 C 11.3 km/h
554 22-07-2015 14:15:00 26.8 C 16.04 g/m*3 26.8 C 11.3 km/h
555 22-07-2015 14:20:00 26.7 C 16.2 g/m*3 26.7 C 9.7 km/h
556 22-07-2015 14:25:00 26.6 C 16.11 g/m*3 26.6 C 11.3 km/h
557 22-07-2015 14:30:00 26.6 C 15.86 g/m*3 26.6 C 9.7 km/h
558 22-07-2015 14:35:00 26.5 C 15.77 g/m*3 26.5 C 8.1 km/h
559 22-07-2015 14:40:00 26.4 C 15.43 g/m*3 26.4 C 9.7 km/h
560 22-07-2015 14:45:00 26.4 C 15.68 g/m*3 26.4 C 6.4 km/h
561 22-07-2015 14:50:00 26.4 C 15.68 g/m*3 26.4 C 8.1 km/h
562 22-07-2015 14:55:00 26.4 C 15.68 g/m*3 26.4 C 6.4 km/h
563 22-07-2015 15:00:00 26.4 C 15.43 g/m*3 26.4 C 6.4 km/h
564 22-07-2015 15:05:00 26.4 C 15.68 g/m*3 26.4 C 6.4 km/h
565 22-07-2015 15:10:00 26.6 C 15.61 g/m*3 26.6 C 4.8 km/h
566 22-07-2015 15:15:00 26.7 C 15.95 g/m*3 26.7 C 6.4 km/h
567 22-07-2015 15:20:00 26.8 C 16.04 g/m*3 26.8 C 9.7 km/h
568 22-07-2015 15:25:00 27 C 16.21 g/m*3 27 C 11.3 km/h
569 22-07-2015 15:30:00 27.2 C 16.91 g/m*3 27.2 C 8.1 km/h
570 22-07-2015 15:35:00 27.5 C 15.87 g/m*3 27.5 C 9.7 km/h
571 22-07-2015 15:40:00 27.5 C 16.14 g/m*3 27.5 C 9.7 km/h
572 22-07-2015 15:45:00 27.5 C 15.87 g/m*3 27.5 C 4.8 km/h
573 22-07-2015 15:50:00 27.3 C 15.7 g/m*3 27.3 C 8.1 km/h
574 22-07-2015 15:55:00 27.2 C 15.61 g/m*3 27.2 C 8.1 km/h
575 22-07-2015 16:00:00 27.2 C 15.87 g/m*3 27.2 C 6.4 km/h
Sensor: Nr:Datum:Temp:Abs-Feuchte:Windchill:Wind:
Aussen-T/F 576 22-07-2015 16:05:00 27.1 C 15.79 g/m*3 27.1 C 6.4 km/h
577 22-07-2015 16:10:00 27.1 C 16.04 g/m*3 27.1 C 8.1 km/h
578 22-07-2015 16:15:00 27.1 C 16.3 g/m*3 27.1 C 8.1 km/h
579 22-07-2015 16:20:00 26.9 C 15.87 g/m*3 26.9 C 6.4 km/h
580 22-07-2015 16:25:00 26.8 C 16.04 g/m*3 26.8 C 6.4 km/h
581 22-07-2015 16:30:00 26.7 C 16.2 g/m*3 26.7 C 8.1 km/h
582 22-07-2015 16:35:00 26.6 C 15.86 g/m*3 26.6 C 8.1 km/h
583 22-07-2015 16:40:00 26.6 C 16.11 g/m*3 26.6 C 9.7 km/h
584 22-07-2015 16:45:00 26.6 C 15.86 g/m*3 26.6 C 8.1 km/h
585 22-07-2015 16:50:00 26.7 C 15.69 g/m*3 26.7 C 4.8 km/h
586 22-07-2015 16:55:00 26.7 C 15.44 g/m*3 26.7 C 8.1 km/h
587 22-07-2015 17:00:00 26.7 C 15.44 g/m*3 26.7 C 4.8 km/h
588 22-07-2015 17:05:00 26.9 C 15.61 g/m*3 26.9 C 9.7 km/h
589 22-07-2015 17:10:00 27.2 C 15.61 g/m*3 27.2 C 6.4 km/h
590 22-07-2015 17:15:00 27.4 C 15.52 g/m*3 27.4 C 6.4 km/h
591 22-07-2015 17:20:00 27.5 C 15.61 g/m*3 27.5 C 1.6 km/h
592 22-07-2015 17:25:00 27.6 C 15.96 g/m*3 27.6 C 4.8 km/h
593 22-07-2015 17:30:00 27.7 C 15.78 g/m*3 27.7 C 8.1 km/h
594 22-07-2015 17:35:00 27.7 C 16.05 g/m*3 27.7 C 3.2 km/h
595 22-07-2015 17:40:00 27.9 C 15.96 g/m*3 27.9 C 14.5 km/h
596 22-07-2015 17:45:00 27.9 C 15.42 g/m*3 27.9 C 17.7 km/h
597 22-07-2015 17:50:00 28.1 C 15.31 g/m*3 28.1 C 11.3 km/h
598 22-07-2015 17:55:00 28.2 C 14.85 g/m*3 28.2 C 14.5 km/h
599 22-07-2015 18:00:00 28.3 C 14.65 g/m*3 28.3 C 11.3 km/h
600 22-07-2015 18:05:00 28.2 C 14.85 g/m*3 28.2 C 12.9 km/h
Sensor: Nr:Datum:Temp:Abs-Feuchte:Windchill:Wind:
Aussen-T/F 601 22-07-2015 18:10:00 28.1 C 14.77 g/m*3 28.1 C 6.4 km/h
602 22-07-2015 18:15:00 27.7 C 14.44 g/m*3 27.7 C 8.1 km/h
603 22-07-2015 18:20:00 27.3 C 14.39 g/m*3 27.3 C 4.8 km/h
604 22-07-2015 18:25:00 27.1 C 14.49 g/m*3 27.1 C 8.1 km/h
605 22-07-2015 18:30:00 26.8 C 14.25 g/m*3 26.8 C 6.4 km/h
606 22-07-2015 18:35:00 26.7 C 14.17 g/m*3 26.7 C 9.7 km/h
607 22-07-2015 18:40:00 26.6 C 14.1 g/m*3 26.6 C 9.7 km/h
608 22-07-2015 18:45:00 26.4 C 13.69 g/m*3 26.4 C 4.8 km/h
609 22-07-2015 18:50:00 26.3 C 13.86 g/m*3 26.3 C 8.1 km/h
610 22-07-2015 18:55:00 26.1 C 13.95 g/m*3 26.1 C 4.8 km/h
611 22-07-2015 19:00:00 26.1 C 13.95 g/m*3 26.1 C 9.7 km/h
612 22-07-2015 19:05:00 26 C 14.12 g/m*3 26 C 9.7 km/h
613 22-07-2015 19:10:00 26.1 C 13.95 g/m*3 26.1 C 6.4 km/h
614 22-07-2015 19:15:00 25.9 C 13.56 g/m*3 25.9 C 9.7 km/h
615 22-07-2015 19:20:00 25.8 C 13.48 g/m*3 25.8 C 6.4 km/h
616 22-07-2015 19:25:00 25.8 C 13.72 g/m*3 25.8 C 9.7 km/h
617 22-07-2015 19:30:00 25.7 C 13.65 g/m*3 25.7 C 6.4 km/h
618 22-07-2015 19:35:00 25.7 C 13.89 g/m*3 25.7 C 4.8 km/h
619 22-07-2015 19:40:00 25.6 C 13.81 g/m*3 25.6 C 6.4 km/h
620 22-07-2015 19:45:00 25.4 C 13.65 g/m*3 25.4 C 6.4 km/h
621 22-07-2015 19:50:00 25.3 C 13.81 g/m*3 25.3 C 6.4 km/h
622 22-07-2015 19:55:00 25.2 C 13.74 g/m*3 25.2 C 12.9 km/h
623 22-07-2015 20:00:00 25.1 C 13.43 g/m*3 25.1 C 9.7 km/h
624 22-07-2015 20:05:00 25 C 13.35 g/m*3 25 C 9.7 km/h
625 22-07-2015 20:10:00 24.8 C 13.2 g/m*3 24.8 C 9.7 km/h
Sensor: Nr:Datum:Temp:Abs-Feuchte:Windchill:Wind:
Aussen-T/F 626 22-07-2015 20:15:00 24.8 C 13.2 g/m*3 24.8 C 9.7 km/h
627 22-07-2015 20:20:00 24.7 C 13.35 g/m*3 24.7 C 8.1 km/h
628 22-07-2015 20:25:00 24.6 C 13.05 g/m*3 24.6 C 9.7 km/h
629 22-07-2015 20:30:00 24.6 C 13.05 g/m*3 24.6 C 9.7 km/h
630 22-07-2015 20:35:00 24.5 C 12.98 g/m*3 24.5 C 9.7 km/h
631 22-07-2015 20:40:00 24.4 C 12.69 g/m*3 24.4 C 11.3 km/h
632 22-07-2015 20:45:00 24.4 C 12.69 g/m*3 24.4 C 12.9 km/h
633 22-07-2015 20:50:00 24.3 C 12.61 g/m*3 24.3 C 8.1 km/h
634 22-07-2015 20:55:00 24.3 C 12.61 g/m*3 24.3 C 9.7 km/h
635 22-07-2015 21:00:00 24.2 C 12.54 g/m*3 24.2 C 14.5 km/h
636 22-07-2015 21:05:00 24.2 C 12.54 g/m*3 24.2 C 4.8 km/h
637 22-07-2015 21:10:00 24.1 C 12.25 g/m*3 24.1 C 6.4 km/h
638 22-07-2015 21:15:00 24 C 12.18 g/m*3 24 C 6.4 km/h
639 22-07-2015 21:20:00 23.9 C 11.9 g/m*3 23.9 C 11.3 km/h
640 22-07-2015 21:25:00 23.9 C 12.11 g/m*3 23.9 C 12.9 km/h
641 22-07-2015 21:30:00 23.8 C 12.05 g/m*3 23.8 C 4.8 km/h
642 22-07-2015 21:35:00 23.8 C 12.26 g/m*3 23.8 C 8.1 km/h
643 22-07-2015 21:40:00 23.7 C 11.98 g/m*3 23.7 C 11.3 km/h
644 22-07-2015 21:45:00 23.6 C 11.7 g/m*3 23.6 C 14.5 km/h
645 22-07-2015 21:50:00 23.4 C 11.57 g/m*3 23.4 C 12.9 km/h
646 22-07-2015 21:55:00 23.3 C 11.5 g/m*3 23.3 C 12.9 km/h
647 22-07-2015 22:00:00 23.2 C 11.43 g/m*3 23.2 C 9.7 km/h
648 22-07-2015 22:05:00 23.2 C 11.43 g/m*3 23.2 C 4.8 km/h
649 22-07-2015 22:10:00 23.1 C 11.37 g/m*3 23.1 C 16.1 km/h
650 22-07-2015 22:15:00 22.9 C 11.24 g/m*3 22.9 C 12.9 km/h
Sensor: Nr:Datum:Temp:Abs-Feuchte:Windchill:Wind:
Aussen-T/F 651 22-07-2015 22:20:00 22.8 C 11.18 g/m*3 22.8 C 6.4 km/h
652 22-07-2015 22:25:00 22.8 C 11.18 g/m*3 22.8 C 8.1 km/h
653 22-07-2015 22:30:00 22.7 C 11.31 g/m*3 22.7 C 6.4 km/h
654 22-07-2015 22:35:00 22.6 C 11.25 g/m*3 22.6 C 6.4 km/h
655 22-07-2015 22:40:00 22.6 C 11.25 g/m*3 22.6 C 4.8 km/h
656 22-07-2015 22:45:00 22.5 C 11.39 g/m*3 22.5 C 6.4 km/h
657 22-07-2015 22:50:00 22.4 C 11.32 g/m*3 22.4 C 9.7 km/h
658 22-07-2015 22:55:00 22.3 C 11.26 g/m*3 22.3 C 8.1 km/h
659 22-07-2015 23:00:00 22.3 C 11.26 g/m*3 22.3 C 4.8 km/h
660 22-07-2015 23:05:00 22.2 C 11.39 g/m*3 22.2 C 3.2 km/h
661 22-07-2015 23:10:00 22.1 C 11.32 g/m*3 22.1 C 4.8 km/h
662 22-07-2015 23:15:00 22.1 C 11.32 g/m*3 22.1 C 4.8 km/h
663 22-07-2015 23:20:00 22 C 11.65 g/m*3 22 C 4.8 km/h
664 22-07-2015 23:25:00 21.8 C 12.09 g/m*3 21.8 C 0 km/h
665 22-07-2015 23:30:00 21.6 C 12.33 g/m*3 21.6 C 0 km/h
666 22-07-2015 23:35:00 21.4 C 12 g/m*3 21.4 C 1.6 km/h
667 22-07-2015 23:40:00 21.3 C 12.49 g/m*3 21.3 C 4.8 km/h
668 22-07-2015 23:45:00 21.2 C 12.05 g/m*3 21.2 C 6.4 km/h
669 22-07-2015 23:50:00 21.2 C 12.23 g/m*3 21.2 C 0 km/h
670 22-07-2015 23:55:00 21.1 C 12.16 g/m*3 21.1 C 0 km/h
671 23-07-2015 00:00:00 21 C 12.64 g/m*3 21 C 0 km/h
672 23-07-2015 00:05:00 20.8 C 12.86 g/m*3 20.8 C 0 km/h
673 23-07-2015 00:10:00 20.7 C 12.96 g/m*3 20.7 C 0 km/h
674 23-07-2015 00:15:00 20.6 C 12.89 g/m*3 20.6 C 0 km/h
675 23-07-2015 00:20:00 20.3 C 12.66 g/m*3 20.3 C 0 km/h
Sensor: Nr:Datum:Temp:Abs-Feuchte:Windchill:Wind:
Aussen-T/F 676 23-07-2015 00:25:00 20.1 C 12.34 g/m*3 20.1 C 0 km/h
677 23-07-2015 00:30:00 19.8 C 12.47 g/m*3 19.8 C 0 km/h
678 23-07-2015 00:35:00 19.6 C 12.49 g/m*3 19.6 C 0 km/h
679 23-07-2015 00:40:00 19.4 C 12.35 g/m*3 19.4 C 0 km/h
680 23-07-2015 00:45:00 19.3 C 12.27 g/m*3 19.3 C 0 km/h
681 23-07-2015 00:50:00 19.3 C 12.44 g/m*3 19.3 C 0 km/h
682 23-07-2015 00:55:00 19.2 C 12.37 g/m*3 19.2 C 0 km/h
683 23-07-2015 01:00:00 19.1 C 12.29 g/m*3 19.1 C 0 km/h
684 23-07-2015 01:05:00 19 C 12.55 g/m*3 19 C 0 km/h
685 23-07-2015 01:10:00 18.9 C 12.31 g/m*3 18.9 C 0 km/h
686 23-07-2015 01:15:00 18.8 C 12.4 g/m*3 18.8 C 1.6 km/h
687 23-07-2015 01:20:00 18.7 C 12.33 g/m*3 18.7 C 0 km/h
688 23-07-2015 01:25:00 18.6 C 12.26 g/m*3 18.6 C 0 km/h
689 23-07-2015 01:30:00 18.4 C 12.27 g/m*3 18.4 C 3.2 km/h
690 23-07-2015 01:35:00 18.4 C 12.27 g/m*3 18.4 C 3.2 km/h
691 23-07-2015 01:40:00 18.3 C 12.2 g/m*3 18.3 C 0 km/h
692 23-07-2015 01:45:00 18.2 C 12.12 g/m*3 18.2 C 0 km/h
693 23-07-2015 01:50:00 18.2 C 12.28 g/m*3 18.2 C 0 km/h
694 23-07-2015 01:55:00 18.1 C 12.21 g/m*3 18.1 C 0 km/h
695 23-07-2015 02:00:00 18.1 C 12.21 g/m*3 18.1 C 0 km/h
696 23-07-2015 02:05:00 17.9 C 12.06 g/m*3 17.9 C 0 km/h
697 23-07-2015 02:10:00 17.9 C 12.06 g/m*3 17.9 C 0 km/h
698 23-07-2015 02:15:00 17.8 C 11.84 g/m*3 17.8 C 0 km/h
699 23-07-2015 02:20:00 17.7 C 11.77 g/m*3 17.7 C 0 km/h
700 23-07-2015 02:25:00 17.7 C 11.92 g/m*3 17.7 C 0 km/h
Sensor: Nr:Datum:Temp:Abs-Feuchte:Windchill:Wind:
Aussen-T/F 701 23-07-2015 02:30:00 17.7 C 11.92 g/m*3 17.7 C 1.6 km/h
702 23-07-2015 02:35:00 17.7 C 11.92 g/m*3 17.7 C 1.6 km/h
703 23-07-2015 02:40:00 17.7 C 11.92 g/m*3 17.7 C 0 km/h
704 23-07-2015 02:45:00 17.6 C 11.85 g/m*3 17.6 C 1.6 km/h
705 23-07-2015 02:50:00 17.5 C 11.78 g/m*3 17.5 C 1.6 km/h
706 23-07-2015 02:55:00 17.4 C 11.86 g/m*3 17.4 C 0 km/h
707 23-07-2015 03:00:00 17.3 C 11.64 g/m*3 17.3 C 1.6 km/h
708 23-07-2015 03:05:00 17.3 C 11.79 g/m*3 17.3 C 0 km/h
709 23-07-2015 03:10:00 17.2 C 11.72 g/m*3 17.2 C 0 km/h
710 23-07-2015 03:15:00 17.1 C 11.65 g/m*3 17.1 C 1.6 km/h
711 23-07-2015 03:20:00 17 C 11.58 g/m*3 17 C 0 km/h
712 23-07-2015 03:25:00 17 C 11.58 g/m*3 17 C 0 km/h
713 23-07-2015 03:30:00 16.9 C 11.65 g/m*3 16.9 C 3.2 km/h
714 23-07-2015 03:35:00 16.9 C 11.65 g/m*3 16.9 C 3.2 km/h
715 23-07-2015 03:40:00 16.8 C 11.58 g/m*3 16.8 C 0 km/h
716 23-07-2015 03:45:00 16.8 C 11.72 g/m*3 16.8 C 0 km/h
717 23-07-2015 03:50:00 16.7 C 11.65 g/m*3 16.7 C 0 km/h
718 23-07-2015 03:55:00 16.6 C 11.44 g/m*3 16.6 C 0 km/h
719 23-07-2015 04:00:00 16.5 C 11.37 g/m*3 16.5 C 0 km/h
720 23-07-2015 04:05:00 16.4 C 11.45 g/m*3 16.4 C 3.2 km/h
721 23-07-2015 04:10:00 16.4 C 11.45 g/m*3 16.4 C 0 km/h
722 23-07-2015 04:15:00 16.4 C 11.45 g/m*3 16.4 C 0 km/h
723 23-07-2015 04:20:00 16.5 C 11.65 g/m*3 16.5 C 1.6 km/h
724 23-07-2015 04:25:00 16.6 C 11.72 g/m*3 16.6 C 3.2 km/h
725 23-07-2015 04:30:00 16.7 C 11.8 g/m*3 16.7 C 0 km/h
Sensor: Nr:Datum:Temp:Abs-Feuchte:Windchill:Wind:
Aussen-T/F 726 23-07-2015 04:35:00 16.7 C 11.8 g/m*3 16.7 C 4.8 km/h
727 23-07-2015 04:40:00 16.8 C 11.87 g/m*3 16.8 C 3.2 km/h
728 23-07-2015 04:45:00 16.8 C 11.87 g/m*3 16.8 C 0 km/h
729 23-07-2015 04:50:00 16.8 C 11.87 g/m*3 16.8 C 1.6 km/h
730 23-07-2015 04:55:00 16.8 C 11.87 g/m*3 16.8 C 0 km/h
731 23-07-2015 05:00:00 16.8 C 11.87 g/m*3 16.8 C 0 km/h
732 23-07-2015 05:05:00 16.8 C 11.87 g/m*3 16.8 C 1.6 km/h
733 23-07-2015 05:10:00 16.9 C 11.94 g/m*3 16.9 C 0 km/h
734 23-07-2015 05:15:00 16.9 C 11.94 g/m*3 16.9 C 0 km/h
735 23-07-2015 05:20:00 16.9 C 11.79 g/m*3 16.9 C 0 km/h
736 23-07-2015 05:25:00 16.9 C 11.79 g/m*3 16.9 C 0 km/h
737 23-07-2015 05:30:00 16.9 C 11.94 g/m*3 16.9 C 0 km/h
738 23-07-2015 05:35:00 16.9 C 11.79 g/m*3 16.9 C 0 km/h
739 23-07-2015 05:40:00 16.9 C 11.94 g/m*3 16.9 C 0 km/h
740 23-07-2015 05:45:00 16.9 C 11.94 g/m*3 16.9 C 0 km/h
741 23-07-2015 05:50:00 16.9 C 11.94 g/m*3 16.9 C 0 km/h
742 23-07-2015 05:55:00 16.9 C 11.94 g/m*3 16.9 C 0 km/h
743 23-07-2015 06:00:00 16.9 C 11.79 g/m*3 16.9 C 0 km/h
744 23-07-2015 06:05:00 16.9 C 11.79 g/m*3 16.9 C 0 km/h
745 23-07-2015 06:10:00 17 C 11.87 g/m*3 17 C 0 km/h
746 23-07-2015 06:15:00 17 C 11.72 g/m*3 17 C 0 km/h
747 23-07-2015 06:20:00 17.1 C 11.94 g/m*3 17.1 C 0 km/h
748 23-07-2015 06:25:00 17.1 C 11.94 g/m*3 17.1 C 0 km/h
749 23-07-2015 06:30:00 17.1 C 11.65 g/m*3 17.1 C 3.2 km/h
750 23-07-2015 06:35:00 17.2 C 11.57 g/m*3 17.2 C 3.2 km/h
Sensor: Nr:Datum:Temp:Abs-Feuchte:Windchill:Wind:
Aussen-T/F 751 23-07-2015 06:40:00 17.3 C 11.49 g/m*3 17.3 C 0 km/h
752 23-07-2015 06:45:00 17.4 C 11.71 g/m*3 17.4 C 3.2 km/h
753 23-07-2015 06:50:00 17.4 C 11.12 g/m*3 17.4 C 3.2 km/h
754 23-07-2015 06:55:00 17.6 C 11.4 g/m*3 17.6 C 1.6 km/h
755 23-07-2015 07:00:00 17.7 C 11.32 g/m*3 17.7 C 4.8 km/h
756 23-07-2015 07:05:00 17.7 C 11.16 g/m*3 17.7 C 1.6 km/h
757 23-07-2015 07:10:00 17.7 C 11.16 g/m*3 17.7 C 3.2 km/h
758 23-07-2015 07:15:00 17.8 C 11.08 g/m*3 17.8 C 1.6 km/h
759 23-07-2015 07:20:00 17.8 C 11.08 g/m*3 17.8 C 0 km/h
760 23-07-2015 07:25:00 17.8 C 10.93 g/m*3 17.8 C 3.2 km/h
761 23-07-2015 07:30:00 17.8 C 10.93 g/m*3 17.8 C 4.8 km/h
762 23-07-2015 07:35:00 17.8 C 10.78 g/m*3 17.8 C 3.2 km/h
763 23-07-2015 07:40:00 17.8 C 10.78 g/m*3 17.8 C 4.8 km/h
764 23-07-2015 07:45:00 17.9 C 10.84 g/m*3 17.9 C 4.8 km/h
765 23-07-2015 07:50:00 17.9 C 10.99 g/m*3 17.9 C 4.8 km/h
766 23-07-2015 07:55:00 18 C 10.91 g/m*3 18 C 4.8 km/h
767 23-07-2015 08:00:00 18.1 C 10.82 g/m*3 18.1 C 8.1 km/h
768 23-07-2015 08:05:00 18.1 C 10.97 g/m*3 18.1 C 8.1 km/h
769 23-07-2015 08:10:00 18.2 C 10.88 g/m*3 18.2 C 3.2 km/h
770 23-07-2015 08:15:00 18.3 C 10.79 g/m*3 18.3 C 6.4 km/h
771 23-07-2015 08:20:00 18.4 C 11.01 g/m*3 18.4 C 8.1 km/h
772 23-07-2015 08:25:00 18.5 C 11.08 g/m*3 18.5 C 6.4 km/h
773 23-07-2015 08:30:00 18.6 C 10.98 g/m*3 18.6 C 8.1 km/h
774 23-07-2015 08:35:00 18.7 C 11.05 g/m*3 18.7 C 6.4 km/h
775 23-07-2015 08:40:00 18.7 C 10.89 g/m*3 18.7 C 6.4 km/h
Sensor: Nr:Datum:Temp:Abs-Feuchte:Windchill:Wind:
Aussen-T/F 776 23-07-2015 08:45:00 18.8 C 10.95 g/m*3 18.8 C 9.7 km/h
777 23-07-2015 08:50:00 18.8 C 10.79 g/m*3 18.8 C 9.7 km/h
778 23-07-2015 08:55:00 18.8 C 10.79 g/m*3 18.8 C 11.3 km/h
779 23-07-2015 09:00:00 19 C 10.92 g/m*3 19 C 6.4 km/h
780 23-07-2015 09:05:00 19.1 C 10.82 g/m*3 19.1 C 4.8 km/h
781 23-07-2015 09:10:00 19.1 C 10.98 g/m*3 19.1 C 11.3 km/h
782 23-07-2015 09:15:00 19.1 C 10.98 g/m*3 19.1 C 6.4 km/h
783 23-07-2015 09:20:00 19.1 C 10.98 g/m*3 19.1 C 8.1 km/h
784 23-07-2015 09:25:00 19.1 C 10.98 g/m*3 19.1 C 6.4 km/h
785 23-07-2015 09:30:00 19.2 C 10.88 g/m*3 19.2 C 4.8 km/h
786 23-07-2015 09:35:00 19.2 C 10.88 g/m*3 19.2 C 8.1 km/h
787 23-07-2015 09:40:00 19.2 C 10.72 g/m*3 19.2 C 8.1 km/h
788 23-07-2015 09:45:00 19.2 C 10.72 g/m*3 19.2 C 3.2 km/h
789 23-07-2015 09:50:00 19.1 C 10.82 g/m*3 19.1 C 1.6 km/h
790 23-07-2015 09:55:00 19.1 C 10.82 g/m*3 19.1 C 3.2 km/h
791 23-07-2015 10:00:00 19.2 C 10.72 g/m*3 19.2 C 4.8 km/h
792 23-07-2015 10:05:00 19.3 C 10.95 g/m*3 19.3 C 6.4 km/h
793 23-07-2015 10:10:00 19.7 C 10.7 g/m*3 19.7 C 11.3 km/h
794 23-07-2015 10:15:00 19.9 C 10.65 g/m*3 19.9 C 6.4 km/h
795 23-07-2015 10:20:00 20.3 C 11.08 g/m*3 20.3 C 8.1 km/h
796 23-07-2015 10:25:00 20.6 C 10.92 g/m*3 20.6 C 11.3 km/h
797 23-07-2015 10:30:00 20.9 C 10.93 g/m*3 20.9 C 9.7 km/h
798 23-07-2015 10:35:00 21.1 C 11.06 g/m*3 21.1 C 8.1 km/h
799 23-07-2015 10:40:00 21 C 10.99 g/m*3 21 C 6.4 km/h
800 23-07-2015 10:45:00 21.2 C 11.12 g/m*3 21.2 C 8.1 km/h
Sensor: Nr:Datum:Temp:Abs-Feuchte:Windchill:Wind:
Aussen-T/F 801 23-07-2015 10:50:00 21.6 C 11.57 g/m*3 21.6 C 11.3 km/h
802 23-07-2015 10:55:00 21.8 C 11.13 g/m*3 21.8 C 8.1 km/h
803 23-07-2015 11:00:00 21.9 C 11.19 g/m*3 21.9 C 9.7 km/h
804 23-07-2015 11:05:00 22.2 C 11.39 g/m*3 22.2 C 8.1 km/h
805 23-07-2015 11:10:00 22.3 C 10.86 g/m*3 22.3 C 11.3 km/h
806 23-07-2015 11:15:00 22.3 C 10.86 g/m*3 22.3 C 9.7 km/h
807 23-07-2015 11:20:00 22.3 C 10.86 g/m*3 22.3 C 8.1 km/h
808 23-07-2015 11:25:00 22.4 C 11.12 g/m*3 22.4 C 9.7 km/h
809 23-07-2015 11:30:00 22.6 C 11.05 g/m*3 22.6 C 6.4 km/h
810 23-07-2015 11:35:00 22.6 C 11.25 g/m*3 22.6 C 9.7 km/h
811 23-07-2015 11:40:00 22.4 C 11.12 g/m*3 22.4 C 6.4 km/h
812 23-07-2015 11:45:00 22.6 C 11.45 g/m*3 22.6 C 8.1 km/h
813 23-07-2015 11:50:00 22.8 C 11.38 g/m*3 22.8 C 9.7 km/h
814 23-07-2015 11:55:00 22.8 C 11.18 g/m*3 22.8 C 3.2 km/h
815 23-07-2015 12:00:00 22.7 C 11.72 g/m*3 22.7 C 8.1 km/h
816 23-07-2015 12:05:00 22.6 C 11.25 g/m*3 22.6 C 4.8 km/h
817 23-07-2015 12:10:00 22.6 C 11.05 g/m*3 22.6 C 3.2 km/h
818 23-07-2015 12:15:00 22.4 C 10.92 g/m*3 22.4 C 8.1 km/h
819 23-07-2015 12:20:00 22.3 C 11.06 g/m*3 22.3 C 6.4 km/h
820 23-07-2015 12:25:00 22.2 C 11.19 g/m*3 22.2 C 4.8 km/h
821 23-07-2015 12:30:00 22.2 C 11.19 g/m*3 22.2 C 4.8 km/h
822 23-07-2015 12:35:00 22.2 C 11.39 g/m*3 22.2 C 8.1 km/h
823 23-07-2015 12:40:00 22.2 C 11.39 g/m*3 22.2 C 3.2 km/h
824 23-07-2015 12:45:00 22.5 C 11.58 g/m*3 22.5 C 6.4 km/h
825 23-07-2015 12:50:00 22.9 C 11.24 g/m*3 22.9 C 6.4 km/h
Sensor: Nr:Datum:Temp:Abs-Feuchte:Windchill:Wind:
Aussen-T/F 826 23-07-2015 12:55:00 23.1 C 11.16 g/m*3 23.1 C 4.8 km/h
827 23-07-2015 13:00:00 23 C 11.3 g/m*3 23 C 4.8 km/h
828 23-07-2015 13:05:00 22.8 C 11.38 g/m*3 22.8 C 3.2 km/h
829 23-07-2015 13:10:00 22.7 C 11.11 g/m*3 22.7 C 4.8 km/h
830 23-07-2015 13:15:00 22.7 C 11.92 g/m*3 22.7 C 3.2 km/h
831 23-07-2015 13:20:00 23.1 C 11.78 g/m*3 23.1 C 4.8 km/h
832 23-07-2015 13:25:00 23.8 C 12.05 g/m*3 23.8 C 6.4 km/h
833 23-07-2015 13:30:00 24.2 C 11.66 g/m*3 24.2 C 8.1 km/h
834 23-07-2015 13:35:00 24.5 C 11.64 g/m*3 24.5 C 8.1 km/h
835 23-07-2015 13:40:00 24.3 C 11.06 g/m*3 24.3 C 3.2 km/h
836 23-07-2015 13:45:00 24.4 C 10.9 g/m*3 24.4 C 1.6 km/h
837 23-07-2015 13:50:00 24.2 C 11 g/m*3 24.2 C 1.6 km/h
838 23-07-2015 13:55:00 24.1 C 11.38 g/m*3 24.1 C 6.4 km/h
839 23-07-2015 14:00:00 24 C 11.53 g/m*3 24 C 4.8 km/h
840 23-07-2015 14:05:00 24.1 C 11.82 g/m*3 24.1 C 6.4 km/h
841 23-07-2015 14:10:00 24.3 C 12.17 g/m*3 24.3 C 6.4 km/h
842 23-07-2015 14:15:00 24.3 C 11.06 g/m*3 24.3 C 4.8 km/h
843 23-07-2015 14:20:00 24.6 C 12.15 g/m*3 24.6 C 6.4 km/h
844 23-07-2015 14:25:00 24.9 C 11.67 g/m*3 24.9 C 8.1 km/h
845 23-07-2015 14:30:00 25.3 C 11 g/m*3 25.3 C 9.7 km/h
846 23-07-2015 14:35:00 25.2 C 10.94 g/m*3 25.2 C 4.8 km/h
847 23-07-2015 14:40:00 24.8 C 10.93 g/m*3 24.8 C 9.7 km/h
848 23-07-2015 14:45:00 24.4 C 10.9 g/m*3 24.4 C 6.4 km/h
849 23-07-2015 14:50:00 24.3 C 11.06 g/m*3 24.3 C 8.1 km/h
850 23-07-2015 14:55:00 24.5 C 10.97 g/m*3 24.5 C 6.4 km/h
Sensor: Nr:Datum:Temp:Abs-Feuchte:Windchill:Wind:
Aussen-T/F 851 23-07-2015 15:00:00 24.6 C 10.8 g/m*3 24.6 C 9.7 km/h
852 23-07-2015 15:05:00 24.7 C 12.22 g/m*3 24.7 C 9.7 km/h
853 23-07-2015 15:10:00 25 C 11.28 g/m*3 25 C 8.1 km/h
854 23-07-2015 15:15:00 24.9 C 10.99 g/m*3 24.9 C 4.8 km/h
855 23-07-2015 15:20:00 24.9 C 10.99 g/m*3 24.9 C 4.8 km/h
856 23-07-2015 15:25:00 25.1 C 10.65 g/m*3 25.1 C 11.3 km/h
857 23-07-2015 15:30:00 25.2 C 10.94 g/m*3 25.2 C 8.1 km/h
858 23-07-2015 15:35:00 25.1 C 10.65 g/m*3 25.1 C 4.8 km/h
859 23-07-2015 15:40:00 24.9 C 10.53 g/m*3 24.9 C 3.2 km/h
860 23-07-2015 15:45:00 24.7 C 10.64 g/m*3 24.7 C 4.8 km/h
861 23-07-2015 15:50:00 24.6 C 10.8 g/m*3 24.6 C 4.8 km/h
862 23-07-2015 15:55:00 24.7 C 10.64 g/m*3 24.7 C 6.4 km/h
863 23-07-2015 16:00:00 25.3 C 11 g/m*3 25.3 C 11.3 km/h
864 23-07-2015 16:05:00 25.6 C 11.19 g/m*3 25.6 C 6.4 km/h
865 23-07-2015 16:10:00 25.8 C 11.07 g/m*3 25.8 C 9.7 km/h
866 23-07-2015 16:15:00 25.7 C 10.77 g/m*3 25.7 C 9.7 km/h
867 23-07-2015 16:20:00 25.6 C 10.95 g/m*3 25.6 C 6.4 km/h
868 23-07-2015 16:25:00 25.3 C 10.53 g/m*3 25.3 C 6.4 km/h
869 23-07-2015 16:30:00 25.1 C 10.88 g/m*3 25.1 C 8.1 km/h
870 23-07-2015 16:35:00 24.9 C 10.99 g/m*3 24.9 C 6.4 km/h
871 23-07-2015 16:40:00 24.9 C 11.22 g/m*3 24.9 C 6.4 km/h
872 23-07-2015 16:45:00 24.7 C 11.09 g/m*3 24.7 C 8.1 km/h
873 23-07-2015 16:50:00 24.6 C 10.8 g/m*3 24.6 C 6.4 km/h
874 23-07-2015 16:55:00 24.5 C 10.74 g/m*3 24.5 C 3.2 km/h
875 23-07-2015 17:00:00 24.4 C 10.46 g/m*3 24.4 C 4.8 km/h
Sensor: Nr:Datum:Temp:Abs-Feuchte:Windchill:Wind:
Aussen-T/F 876 23-07-2015 17:05:00 24.4 C 10.68 g/m*3 24.4 C 4.8 km/h
877 23-07-2015 17:10:00 24.5 C 10.74 g/m*3 24.5 C 8.1 km/h
878 23-07-2015 17:15:00 24.6 C 10.8 g/m*3 24.6 C 8.1 km/h
879 23-07-2015 17:20:00 24.4 C 10.9 g/m*3 24.4 C 8.1 km/h
880 23-07-2015 17:25:00 24.4 C 10.68 g/m*3 24.4 C 8.1 km/h
881 23-07-2015 17:30:00 24.4 C 10.68 g/m*3 24.4 C 8.1 km/h
882 23-07-2015 17:35:00 24.6 C 10.8 g/m*3 24.6 C 8.1 km/h
883 23-07-2015 17:40:00 24.8 C 10.47 g/m*3 24.8 C 8.1 km/h
884 23-07-2015 17:45:00 24.8 C 10.93 g/m*3 24.8 C 11.3 km/h
885 23-07-2015 17:50:00 24.7 C 10.64 g/m*3 24.7 C 11.3 km/h
886 23-07-2015 17:55:00 24.6 C 10.58 g/m*3 24.6 C 9.7 km/h
887 23-07-2015 18:00:00 24.4 C 10.9 g/m*3 24.4 C 8.1 km/h
888 23-07-2015 18:05:00 24.5 C 10.74 g/m*3 24.5 C 6.4 km/h
889 23-07-2015 18:10:00 24.8 C 10.7 g/m*3 24.8 C 8.1 km/h
890 23-07-2015 18:15:00 25.3 C 11 g/m*3 25.3 C 8.1 km/h
891 23-07-2015 18:20:00 25.8 C 11.32 g/m*3 25.8 C 8.1 km/h
892 23-07-2015 18:25:00 25.9 C 10.89 g/m*3 25.9 C 8.1 km/h
893 23-07-2015 18:30:00 25.9 C 10.89 g/m*3 25.9 C 11.3 km/h
894 23-07-2015 18:35:00 25.7 C 10.77 g/m*3 25.7 C 6.4 km/h
895 23-07-2015 18:40:00 25.7 C 10.77 g/m*3 25.7 C 6.4 km/h
896 23-07-2015 18:45:00 25.8 C 10.83 g/m*3 25.8 C 11.3 km/h
897 23-07-2015 18:50:00 25.9 C 10.89 g/m*3 25.9 C 8.1 km/h
898 23-07-2015 18:55:00 25.9 C 10.65 g/m*3 25.9 C 4.8 km/h
899 23-07-2015 19:00:00 25.8 C 10.59 g/m*3 25.8 C 6.4 km/h
900 23-07-2015 19:05:00 25.8 C 10.59 g/m*3 25.8 C 6.4 km/h
Sensor: Nr:Datum:Temp:Abs-Feuchte:Windchill:Wind:
Aussen-T/F 901 23-07-2015 19:10:00 25.9 C 10.65 g/m*3 25.9 C 6.4 km/h
902 23-07-2015 19:15:00 25.8 C 10.83 g/m*3 25.8 C 6.4 km/h
903 23-07-2015 19:20:00 25.7 C 11.01 g/m*3 25.7 C 9.7 km/h
904 23-07-2015 19:25:00 25.4 C 11.06 g/m*3 25.4 C 4.8 km/h
905 23-07-2015 19:30:00 25.3 C 10.77 g/m*3 25.3 C 6.4 km/h
906 23-07-2015 19:35:00 25.2 C 10.71 g/m*3 25.2 C 8.1 km/h
907 23-07-2015 19:40:00 24.9 C 10.76 g/m*3 24.9 C 9.7 km/h
908 23-07-2015 19:45:00 24.6 C 10.8 g/m*3 24.6 C 6.4 km/h
909 23-07-2015 19:50:00 24.3 C 10.84 g/m*3 24.3 C 8.1 km/h
910 23-07-2015 19:55:00 24.2 C 10.78 g/m*3 24.2 C 4.8 km/h
911 23-07-2015 20:00:00 24.1 C 10.94 g/m*3 24.1 C 4.8 km/h
912 23-07-2015 20:05:00 23.8 C 10.76 g/m*3 23.8 C 4.8 km/h
913 23-07-2015 20:10:00 23.6 C 11.06 g/m*3 23.6 C 4.8 km/h
914 23-07-2015 20:15:00 23.3 C 10.87 g/m*3 23.3 C 6.4 km/h
915 23-07-2015 20:20:00 23.1 C 10.96 g/m*3 23.1 C 3.2 km/h
916 23-07-2015 20:25:00 22.8 C 11.18 g/m*3 22.8 C 1.6 km/h
917 23-07-2015 20:30:00 22.5 C 11.98 g/m*3 22.5 C 0 km/h
918 23-07-2015 20:35:00 21.9 C 11.77 g/m*3 21.9 C 0 km/h
919 23-07-2015 20:40:00 21.4 C 11.62 g/m*3 21.4 C 0 km/h
920 23-07-2015 20:45:00 20.9 C 11.47 g/m*3 20.9 C 0 km/h
921 23-07-2015 20:50:00 20.7 C 11.7 g/m*3 20.7 C 0 km/h
922 23-07-2015 20:55:00 20.4 C 11.85 g/m*3 20.4 C 0 km/h
923 23-07-2015 21:00:00 20.2 C 11.89 g/m*3 20.2 C 1.6 km/h
924 23-07-2015 21:05:00 19.9 C 11.68 g/m*3 19.9 C 0 km/h
925 23-07-2015 21:10:00 19.6 C 11.65 g/m*3 19.6 C 0 km/h
Sensor: Nr:Datum:Temp:Abs-Feuchte:Windchill:Wind:
Aussen-T/F 926 23-07-2015 21:15:00 19.4 C 11.51 g/m*3 19.4 C 0 km/h
927 23-07-2015 21:20:00 19.3 C 11.61 g/m*3 19.3 C 0 km/h
928 23-07-2015 21:25:00 19.1 C 11.64 g/m*3 19.1 C 0 km/h
929 23-07-2015 21:30:00 18.9 C 11.66 g/m*3 18.9 C 0 km/h
930 23-07-2015 21:35:00 18.7 C 11.53 g/m*3 18.7 C 0 km/h
931 23-07-2015 21:40:00 18.6 C 11.78 g/m*3 18.6 C 0 km/h
932 23-07-2015 21:45:00 18.4 C 11.64 g/m*3 18.4 C 0 km/h
933 23-07-2015 21:50:00 18.4 C 11.8 g/m*3 18.4 C 0 km/h
934 23-07-2015 21:55:00 18.3 C 11.57 g/m*3 18.3 C 0 km/h
935 23-07-2015 22:00:00 18.2 C 11.66 g/m*3 18.2 C 0 km/h
936 23-07-2015 22:05:00 18.1 C 11.59 g/m*3 18.1 C 1.6 km/h
937 23-07-2015 22:10:00 18 C 11.67 g/m*3 18 C 0 km/h
938 23-07-2015 22:15:00 17.9 C 11.45 g/m*3 17.9 C 0 km/h
939 23-07-2015 22:20:00 17.8 C 11.54 g/m*3 17.8 C 0 km/h
940 23-07-2015 22:25:00 17.8 C 11.54 g/m*3 17.8 C 0 km/h
941 23-07-2015 22:30:00 17.7 C 11.47 g/m*3 17.7 C 0 km/h
942 23-07-2015 22:35:00 17.7 C 11.47 g/m*3 17.7 C 0 km/h
943 23-07-2015 22:40:00 17.6 C 11.4 g/m*3 17.6 C 0 km/h
944 23-07-2015 22:45:00 17.5 C 11.33 g/m*3 17.5 C 0 km/h
945 23-07-2015 22:50:00 17.4 C 11.26 g/m*3 17.4 C 0 km/h
946 23-07-2015 22:55:00 17.3 C 11.34 g/m*3 17.3 C 0 km/h
947 23-07-2015 23:00:00 17.3 C 11.49 g/m*3 17.3 C 0 km/h
948 23-07-2015 23:05:00 17.2 C 11.42 g/m*3 17.2 C 0 km/h
949 23-07-2015 23:10:00 17.2 C 11.57 g/m*3 17.2 C 0 km/h
950 23-07-2015 23:15:00 17.1 C 11.35 g/m*3 17.1 C 0 km/h
Sensor: Nr:Datum:Temp:Abs-Feuchte:Windchill:Wind:
Aussen-T/F 951 23-07-2015 23:20:00 17.1 C 11.5 g/m*3 17.1 C 0 km/h
952 23-07-2015 23:25:00 17 C 11.43 g/m*3 17 C 0 km/h
953 23-07-2015 23:30:00 16.9 C 11.22 g/m*3 16.9 C 0 km/h
954 23-07-2015 23:35:00 16.8 C 11.15 g/m*3 16.8 C 0 km/h
955 23-07-2015 23:40:00 16.8 C 11.15 g/m*3 16.8 C 0 km/h
956 23-07-2015 23:45:00 16.7 C 11.23 g/m*3 16.7 C 0 km/h
957 23-07-2015 23:50:00 16.7 C 11.37 g/m*3 16.7 C 0 km/h
958 23-07-2015 23:55:00 16.6 C 11.3 g/m*3 16.6 C 0 km/h
959 24-07-2015 00:00:00 16.6 C 11.3 g/m*3 16.6 C 0 km/h
960 24-07-2015 00:05:00 16.5 C 11.23 g/m*3 16.5 C 0 km/h
961 24-07-2015 00:10:00 16.5 C 11.09 g/m*3 16.5 C 0 km/h
962 24-07-2015 00:15:00 16.4 C 11.03 g/m*3 16.4 C 0 km/h
963 24-07-2015 00:20:00 16.4 C 11.03 g/m*3 16.4 C 0 km/h
964 24-07-2015 00:25:00 16.4 C 11.03 g/m*3 16.4 C 0 km/h
965 24-07-2015 00:30:00 16.3 C 10.96 g/m*3 16.3 C 0 km/h
966 24-07-2015 00:35:00 16.2 C 11.03 g/m*3 16.2 C 0 km/h
967 24-07-2015 00:40:00 16.2 C 11.03 g/m*3 16.2 C 0 km/h
968 24-07-2015 00:45:00 16.1 C 10.97 g/m*3 16.1 C 0 km/h
969 24-07-2015 00:50:00 16.1 C 10.97 g/m*3 16.1 C 0 km/h
970 24-07-2015 00:55:00 15.9 C 10.83 g/m*3 15.9 C 0 km/h
971 24-07-2015 01:00:00 15.8 C 10.9 g/m*3 15.8 C 0 km/h
972 24-07-2015 01:05:00 15.8 C 10.9 g/m*3 15.8 C 0 km/h
973 24-07-2015 01:10:00 15.7 C 10.97 g/m*3 15.7 C 0 km/h
974 24-07-2015 01:15:00 15.5 C 10.84 g/m*3 15.5 C 0 km/h
975 24-07-2015 01:20:00 15.4 C 10.77 g/m*3 15.4 C 0 km/h
Sensor: Nr:Datum:Temp:Abs-Feuchte:Windchill:Wind:
Aussen-T/F 976 24-07-2015 01:25:00 15.3 C 10.84 g/m*3 15.3 C 0 km/h
977 24-07-2015 01:30:00 15.3 C 10.84 g/m*3 15.3 C 0 km/h
978 24-07-2015 01:35:00 15.2 C 10.77 g/m*3 15.2 C 0 km/h
979 24-07-2015 01:40:00 15.1 C 10.84 g/m*3 15.1 C 0 km/h
980 24-07-2015 01:45:00 15.1 C 10.84 g/m*3 15.1 C 0 km/h
981 24-07-2015 01:50:00 14.9 C 10.71 g/m*3 14.9 C 0 km/h
982 24-07-2015 01:55:00 14.9 C 10.71 g/m*3 14.9 C 0 km/h
983 24-07-2015 02:00:00 14.8 C 10.77 g/m*3 14.8 C 0 km/h
984 24-07-2015 02:05:00 14.7 C 10.7 g/m*3 14.7 C 0 km/h
985 24-07-2015 02:10:00 14.7 C 10.7 g/m*3 14.7 C 0 km/h
986 24-07-2015 02:15:00 14.6 C 10.76 g/m*3 14.6 C 0 km/h
987 24-07-2015 02:20:00 14.6 C 10.76 g/m*3 14.6 C 0 km/h
988 24-07-2015 02:25:00 14.5 C 10.7 g/m*3 14.5 C 0 km/h
989 24-07-2015 02:30:00 14.4 C 10.63 g/m*3 14.4 C 0 km/h
990 24-07-2015 02:35:00 14.4 C 10.63 g/m*3 14.4 C 0 km/h
991 24-07-2015 02:40:00 14.3 C 10.57 g/m*3 14.3 C 0 km/h
992 24-07-2015 02:45:00 14.3 C 10.69 g/m*3 14.3 C 0 km/h
993 24-07-2015 02:50:00 14.2 C 10.62 g/m*3 14.2 C 0 km/h
994 24-07-2015 02:55:00 14.2 C 10.62 g/m*3 14.2 C 0 km/h
995 24-07-2015 03:00:00 14.2 C 10.62 g/m*3 14.2 C 0 km/h
996 24-07-2015 03:05:00 14.2 C 10.62 g/m*3 14.2 C 0 km/h
997 24-07-2015 03:10:00 14.2 C 10.75 g/m*3 14.2 C 0 km/h
998 24-07-2015 03:15:00 14.2 C 10.75 g/m*3 14.2 C 0 km/h
999 24-07-2015 03:20:00 14.3 C 10.69 g/m*3 14.3 C 0 km/h
1000 24-07-2015 03:25:00 14.3 C 10.69 g/m*3 14.3 C 0 km/h
Sensor: Nr:Datum:Temp:Abs-Feuchte:Windchill:Wind:
Aussen-T/F 1001 24-07-2015 03:30:00 14.3 C 10.69 g/m*3 14.3 C 0 km/h
1002 24-07-2015 03:35:00 14.4 C 10.75 g/m*3 14.4 C 0 km/h
1003 24-07-2015 03:40:00 14.3 C 10.69 g/m*3 14.3 C 0 km/h
1004 24-07-2015 03:45:00 14.3 C 10.81 g/m*3 14.3 C 0 km/h
1005 24-07-2015 03:50:00 14.3 C 10.81 g/m*3 14.3 C 0 km/h
1006 24-07-2015 03:55:00 14.2 C 10.62 g/m*3 14.2 C 0 km/h
1007 24-07-2015 04:00:00 14.2 C 10.75 g/m*3 14.2 C 0 km/h
1008 24-07-2015 04:05:00 14.1 C 10.68 g/m*3 14.1 C 0 km/h
1009 24-07-2015 04:10:00 14 C 10.61 g/m*3 14 C 0 km/h
1010 24-07-2015 04:15:00 13.9 C 10.55 g/m*3 13.9 C 0 km/h
1011 24-07-2015 04:20:00 13.9 C 10.55 g/m*3 13.9 C 0 km/h
1012 24-07-2015 04:25:00 13.8 C 10.6 g/m*3 13.8 C 0 km/h
1013 24-07-2015 04:30:00 13.8 C 10.6 g/m*3 13.8 C 0 km/h
1014 24-07-2015 04:35:00 13.8 C 10.72 g/m*3 13.8 C 0 km/h
1015 24-07-2015 04:40:00 13.8 C 10.72 g/m*3 13.8 C 0 km/h
1016 24-07-2015 04:45:00 13.9 C 10.79 g/m*3 13.9 C 0 km/h
1017 24-07-2015 04:50:00 13.9 C 10.79 g/m*3 13.9 C 0 km/h
1018 24-07-2015 04:55:00 13.9 C 10.79 g/m*3 13.9 C 0 km/h
1019 24-07-2015 05:00:00 13.9 C 10.79 g/m*3 13.9 C 0 km/h
1020 24-07-2015 05:05:00 13.9 C 10.79 g/m*3 13.9 C 0 km/h
1021 24-07-2015 05:10:00 13.9 C 10.79 g/m*3 13.9 C 0 km/h
1022 24-07-2015 05:15:00 13.9 C 10.79 g/m*3 13.9 C 0 km/h
1023 24-07-2015 05:20:00 13.9 C 10.79 g/m*3 13.9 C 0 km/h
1024 24-07-2015 05:25:00 13.9 C 10.79 g/m*3 13.9 C 0 km/h
1025 24-07-2015 05:30:00 13.8 C 10.72 g/m*3 13.8 C 0 km/h
Sensor: Nr:Datum:Temp:Abs-Feuchte:Windchill:Wind:
Aussen-T/F 1026 24-07-2015 05:35:00 13.8 C 10.72 g/m*3 13.8 C 0 km/h
1027 24-07-2015 05:40:00 13.7 C 10.66 g/m*3 13.7 C 0 km/h
1028 24-07-2015 05:45:00 13.7 C 10.66 g/m*3 13.7 C 0 km/h
1029 24-07-2015 05:50:00 13.7 C 10.66 g/m*3 13.7 C 0 km/h
1030 24-07-2015 05:55:00 13.6 C 10.59 g/m*3 13.6 C 0 km/h
1031 24-07-2015 06:00:00 13.6 C 10.71 g/m*3 13.6 C 0 km/h
1032 24-07-2015 06:05:00 13.7 C 10.78 g/m*3 13.7 C 0 km/h
1033 24-07-2015 06:10:00 13.7 C 10.78 g/m*3 13.7 C 0 km/h
1034 24-07-2015 06:15:00 13.7 C 10.78 g/m*3 13.7 C 0 km/h
1035 24-07-2015 06:20:00 13.7 C 10.78 g/m*3 13.7 C 0 km/h
1036 24-07-2015 06:25:00 13.7 C 10.78 g/m*3 13.7 C 0 km/h
1037 24-07-2015 06:30:00 13.7 C 10.78 g/m*3 13.7 C 0 km/h
1038 24-07-2015 06:35:00 13.7 C 10.78 g/m*3 13.7 C 0 km/h
1039 24-07-2015 06:40:00 13.8 C 10.84 g/m*3 13.8 C 0 km/h
1040 24-07-2015 06:45:00 13.8 C 10.84 g/m*3 13.8 C 0 km/h
1041 24-07-2015 06:50:00 13.8 C 10.84 g/m*3 13.8 C 0 km/h
1042 24-07-2015 06:55:00 13.9 C 10.91 g/m*3 13.9 C 0 km/h
1043 24-07-2015 07:00:00 14.1 C 11.04 g/m*3 14.1 C 0 km/h
1044 24-07-2015 07:05:00 14.2 C 11.11 g/m*3 14.2 C 3.2 km/h
1045 24-07-2015 07:10:00 14.3 C 11.18 g/m*3 14.3 C 0 km/h
1046 24-07-2015 07:15:00 14.4 C 11.25 g/m*3 14.4 C 1.6 km/h
1047 24-07-2015 07:20:00 14.5 C 11.19 g/m*3 14.5 C 0 km/h
1048 24-07-2015 07:25:00 14.6 C 11.26 g/m*3 14.6 C 0 km/h
1049 24-07-2015 07:30:00 14.7 C 11.33 g/m*3 14.7 C 1.6 km/h
1050 24-07-2015 07:35:00 14.8 C 11.4 g/m*3 14.8 C 1.6 km/h
Sensor: Nr:Datum:Temp:Abs-Feuchte:Windchill:Wind:
Aussen-T/F 1051 24-07-2015 07:40:00 14.8 C 11.4 g/m*3 14.8 C 3.2 km/h
1052 24-07-2015 07:45:00 14.8 C 11.4 g/m*3 14.8 C 1.6 km/h
1053 24-07-2015 09:35:00 18.6 C 12.1 g/m*3 18.6 C 1.6 km/h
1054 24-07-2015 09:40:00 18.7 C 12.33 g/m*3 18.7 C 0 km/h
1055 24-07-2015 09:45:00 18.8 C 12.72 g/m*3 18.8 C 0 km/h
1056 24-07-2015 09:50:00 19 C 12.39 g/m*3 19 C 0 km/h
1057 24-07-2015 09:55:00 19.3 C 12.77 g/m*3 19.3 C 1.6 km/h
1058 24-07-2015 10:00:00 19.6 C 12.49 g/m*3 19.6 C 1.6 km/h
1059 24-07-2015 10:05:00 19.9 C 12.54 g/m*3 19.9 C 3.2 km/h
1060 24-07-2015 10:10:00 20.2 C 12.94 g/m*3 20.2 C 3.2 km/h
1061 24-07-2015 10:15:00 20.4 C 12.91 g/m*3 20.4 C 1.6 km/h
1062 24-07-2015 10:20:00 20.7 C 12.78 g/m*3 20.7 C 1.6 km/h
1063 24-07-2015 10:25:00 20.9 C 12.75 g/m*3 20.9 C 3.2 km/h
1064 24-07-2015 10:30:00 21.1 C 12.71 g/m*3 21.1 C 3.2 km/h
1065 24-07-2015 10:35:00 21.2 C 13.16 g/m*3 21.2 C 1.6 km/h
1066 24-07-2015 10:40:00 21.2 C 13.16 g/m*3 21.2 C 0 km/h
1067 24-07-2015 10:45:00 21.2 C 13.16 g/m*3 21.2 C 1.6 km/h
1068 24-07-2015 10:50:00 21.4 C 12.56 g/m*3 21.4 C 3.2 km/h
1069 24-07-2015 10:55:00 21.7 C 12.97 g/m*3 21.7 C 4.8 km/h
1070 24-07-2015 11:00:00 22.1 C 13.08 g/m*3 22.1 C 3.2 km/h
1071 24-07-2015 11:05:00 22.6 C 13.46 g/m*3 22.6 C 3.2 km/h
1072 24-07-2015 11:10:00 23 C 13.36 g/m*3 23 C 4.8 km/h
1073 24-07-2015 11:15:00 23.4 C 13.25 g/m*3 23.4 C 4.8 km/h
1074 24-07-2015 11:20:00 23.6 C 12.97 g/m*3 23.6 C 4.8 km/h
1075 24-07-2015 11:25:00 23.7 C 12.62 g/m*3 23.7 C 3.2 km/h
Sensor: Nr:Datum:Temp:Abs-Feuchte:Windchill:Wind:
Aussen-T/F 1076 24-07-2015 11:30:00 23.9 C 13.2 g/m*3 23.9 C 1.6 km/h
1077 24-07-2015 11:35:00 24 C 13.27 g/m*3 24 C 3.2 km/h
1078 24-07-2015 11:40:00 24.2 C 13.42 g/m*3 24.2 C 4.8 km/h
1079 24-07-2015 11:45:00 24.4 C 13.13 g/m*3 24.4 C 3.2 km/h
1080 24-07-2015 11:50:00 24.8 C 12.97 g/m*3 24.8 C 6.4 km/h
1081 24-07-2015 11:55:00 24.9 C 12.82 g/m*3 24.9 C 4.8 km/h
1082 24-07-2015 12:00:00 25.1 C 13.43 g/m*3 25.1 C 1.6 km/h
1083 24-07-2015 12:05:00 25.2 C 13.27 g/m*3 25.2 C 3.2 km/h
1084 24-07-2015 12:10:00 25.4 C 12.95 g/m*3 25.4 C 3.2 km/h
1085 24-07-2015 12:15:00 25.8 C 13.48 g/m*3 25.8 C 4.8 km/h
1086 24-07-2015 12:20:00 26 C 13.39 g/m*3 26 C 3.2 km/h
1087 24-07-2015 12:25:00 26.1 C 12.49 g/m*3 26.1 C 1.6 km/h
1088 24-07-2015 12:30:00 26.3 C 12.87 g/m*3 26.3 C 4.8 km/h
1089 24-07-2015 12:35:00 26.3 C 12.38 g/m*3 26.3 C 4.8 km/h
1090 24-07-2015 12:40:00 26.2 C 12.8 g/m*3 26.2 C 8.1 km/h
1091 24-07-2015 12:45:00 26.2 C 12.8 g/m*3 26.2 C 6.4 km/h
1092 24-07-2015 12:50:00 26.2 C 12.31 g/m*3 26.2 C 4.8 km/h
1093 24-07-2015 12:55:00 26.1 C 12.49 g/m*3 26.1 C 8.1 km/h
1094 24-07-2015 13:00:00 26.3 C 12.63 g/m*3 26.3 C 6.4 km/h
1095 24-07-2015 13:05:00 26.4 C 12.2 g/m*3 26.4 C 6.4 km/h
1096 24-07-2015 13:10:00 26.6 C 12.08 g/m*3 26.6 C 4.8 km/h
1097 24-07-2015 13:15:00 26.6 C 12.08 g/m*3 26.6 C 4.8 km/h
1098 24-07-2015 13:20:00 26.6 C 12.33 g/m*3 26.6 C 3.2 km/h
1099 24-07-2015 13:25:00 26.6 C 13.09 g/m*3 26.6 C 4.8 km/h
1100 24-07-2015 13:30:00 26.6 C 12.33 g/m*3 26.6 C 6.4 km/h
Sensor: Nr:Datum:Temp:Abs-Feuchte:Windchill:Wind:
Aussen-T/F 1101 24-07-2015 13:35:00 26.5 C 13.27 g/m*3 26.5 C 4.8 km/h
1102 24-07-2015 13:40:00 26.7 C 12.4 g/m*3 26.7 C 8.1 km/h
1103 24-07-2015 13:45:00 26.8 C 12.22 g/m*3 26.8 C 6.4 km/h
1104 24-07-2015 13:50:00 26.8 C 12.47 g/m*3 26.8 C 6.4 km/h
1105 24-07-2015 13:55:00 26.8 C 12.22 g/m*3 26.8 C 8.1 km/h
1106 24-07-2015 14:00:00 26.9 C 12.03 g/m*3 26.9 C 8.1 km/h
1107 24-07-2015 14:05:00 26.9 C 12.03 g/m*3 26.9 C 8.1 km/h
1108 24-07-2015 14:10:00 27.1 C 11.9 g/m*3 27.1 C 8.1 km/h
1109 24-07-2015 14:15:00 26.8 C 11.96 g/m*3 26.8 C 4.8 km/h
1110 24-07-2015 14:20:00 26.8 C 12.22 g/m*3 26.8 C 4.8 km/h
1111 24-07-2015 14:25:00 26.9 C 12.54 g/m*3 26.9 C 8.1 km/h
1112 24-07-2015 14:30:00 27.1 C 11.9 g/m*3 27.1 C 6.4 km/h
1113 24-07-2015 14:35:00 27.2 C 12.49 g/m*3 27.2 C 6.4 km/h
1114 24-07-2015 14:40:00 27.1 C 12.94 g/m*3 27.1 C 4.8 km/h
1115 24-07-2015 14:45:00 27.2 C 12.75 g/m*3 27.2 C 4.8 km/h
1116 24-07-2015 14:50:00 27.4 C 12.89 g/m*3 27.4 C 6.4 km/h
1117 24-07-2015 14:55:00 27.8 C 12.37 g/m*3 27.8 C 6.4 km/h
1118 24-07-2015 15:00:00 28.3 C 12.72 g/m*3 28.3 C 8.1 km/h
1119 24-07-2015 15:05:00 28.7 C 12.43 g/m*3 28.7 C 9.7 km/h
1120 24-07-2015 15:10:00 28.7 C 12.43 g/m*3 28.7 C 9.7 km/h
1121 24-07-2015 15:15:00 28.7 C 12.43 g/m*3 28.7 C 4.8 km/h
1122 24-07-2015 15:20:00 28.9 C 12.57 g/m*3 28.9 C 6.4 km/h
1123 24-07-2015 15:25:00 29.1 C 13.28 g/m*3 29.1 C 11.3 km/h
1124 24-07-2015 15:30:00 29.1 C 12.71 g/m*3 29.1 C 11.3 km/h
1125 24-07-2015 15:35:00 29.1 C 13 g/m*3 29.1 C 6.4 km/h
Sensor: Nr:Datum:Temp:Abs-Feuchte:Windchill:Wind:
Aussen-T/F 1126 24-07-2015 15:40:00 28.9 C 12.86 g/m*3 28.9 C 9.7 km/h
1127 24-07-2015 15:45:00 28.8 C 12.79 g/m*3 28.8 C 8.1 km/h
1128 24-07-2015 15:50:00 28.9 C 13.14 g/m*3 28.9 C 9.7 km/h
1129 24-07-2015 15:55:00 28.9 C 13.43 g/m*3 28.9 C 4.8 km/h
1130 24-07-2015 16:00:00 29.3 C 12.85 g/m*3 29.3 C 6.4 km/h
1131 24-07-2015 16:05:00 29.5 C 13.28 g/m*3 29.5 C 4.8 km/h
1132 24-07-2015 16:10:00 29.6 C 13.06 g/m*3 29.6 C 11.3 km/h
1133 24-07-2015 16:15:00 29.7 C 13.13 g/m*3 29.7 C 12.9 km/h
1134 24-07-2015 16:20:00 29.8 C 12.9 g/m*3 29.8 C 4.8 km/h
1135 24-07-2015 16:25:00 30.1 C 12.5 g/m*3 30.1 C 4.8 km/h
1136 24-07-2015 16:30:00 30.3 C 12.33 g/m*3 30.3 C 8.1 km/h
1137 24-07-2015 16:35:00 30.2 C 13.18 g/m*3 30.2 C 4.8 km/h
1138 24-07-2015 16:40:00 30 C 13.65 g/m*3 30 C 4.8 km/h
1139 24-07-2015 16:45:00 29.8 C 12.9 g/m*3 29.8 C 3.2 km/h
1140 24-07-2015 16:50:00 29.7 C 12.53 g/m*3 29.7 C 6.4 km/h
1141 24-07-2015 16:55:00 29.6 C 12.76 g/m*3 29.6 C 4.8 km/h
1142 24-07-2015 17:00:00 29.6 C 12.46 g/m*3 29.6 C 4.8 km/h
1143 24-07-2015 17:05:00 29.8 C 12.6 g/m*3 29.8 C 6.4 km/h
1144 24-07-2015 17:10:00 29.7 C 12.83 g/m*3 29.7 C 3.2 km/h
1145 24-07-2015 17:15:00 29.5 C 12.69 g/m*3 29.5 C 3.2 km/h
1146 24-07-2015 17:20:00 29.7 C 12.83 g/m*3 29.7 C 4.8 km/h
1147 24-07-2015 17:25:00 30.2 C 12.57 g/m*3 30.2 C 6.4 km/h
1148 24-07-2015 17:30:00 30.3 C 14.18 g/m*3 30.3 C 4.8 km/h
1149 24-07-2015 17:35:00 30.1 C 12.81 g/m*3 30.1 C 3.2 km/h
1150 24-07-2015 17:40:00 29.8 C 12.9 g/m*3 29.8 C 4.8 km/h
Sensor: Nr:Datum:Temp:Abs-Feuchte:Windchill:Wind:
Aussen-T/F 1151 24-07-2015 17:45:00 29.7 C 14.62 g/m*3 29.7 C 4.8 km/h
1152 24-07-2015 17:50:00 29.2 C 15.1 g/m*3 29.2 C 0 km/h
1153 24-07-2015 17:55:00 28.8 C 15.91 g/m*3 28.8 C 3.2 km/h
1154 24-07-2015 18:00:00 28.2 C 15.4 g/m*3 28.2 C 1.6 km/h
1155 24-07-2015 18:05:00 27.6 C 15.7 g/m*3 27.6 C 0 km/h
1156 24-07-2015 18:10:00 27.3 C 15.44 g/m*3 27.3 C 1.6 km/h
1157 24-07-2015 18:15:00 27.1 C 16.04 g/m*3 27.1 C 0 km/h
1158 24-07-2015 18:20:00 26.9 C 15.61 g/m*3 26.9 C 1.6 km/h
1159 24-07-2015 18:25:00 26.7 C 15.69 g/m*3 26.7 C 0 km/h
1160 24-07-2015 18:30:00 26.4 C 15.93 g/m*3 26.4 C 0 km/h
1161 24-07-2015 18:35:00 26.3 C 15.84 g/m*3 26.3 C 0 km/h
1162 24-07-2015 18:40:00 26.2 C 15.76 g/m*3 26.2 C 0 km/h
1163 24-07-2015 18:45:00 26.4 C 16.18 g/m*3 26.4 C 0 km/h
1164 24-07-2015 18:50:00 26.8 C 15.78 g/m*3 26.8 C 3.2 km/h
1165 24-07-2015 18:55:00 27.1 C 16.04 g/m*3 27.1 C 1.6 km/h
1166 24-07-2015 19:00:00 26.9 C 16.12 g/m*3 26.9 C 1.6 km/h
1167 24-07-2015 19:05:00 26.7 C 15.95 g/m*3 26.7 C 0 km/h
1168 24-07-2015 19:10:00 26.5 C 15.77 g/m*3 26.5 C 0 km/h
1169 24-07-2015 19:15:00 26.3 C 15.35 g/m*3 26.3 C 0 km/h
1170 24-07-2015 19:20:00 26.1 C 15.67 g/m*3 26.1 C 0 km/h
1171 24-07-2015 19:25:00 25.9 C 15.74 g/m*3 25.9 C 0 km/h
1172 24-07-2015 19:30:00 25.7 C 15.56 g/m*3 25.7 C 0 km/h
1173 24-07-2015 19:35:00 25.4 C 15.54 g/m*3 25.4 C 0 km/h
1174 24-07-2015 19:40:00 25.1 C 15.05 g/m*3 25.1 C 0 km/h
1175 24-07-2015 19:45:00 24.9 C 15.11 g/m*3 24.9 C 0 km/h
Sensor: Nr:Datum:Temp:Abs-Feuchte:Windchill:Wind:
Aussen-T/F 1176 24-07-2015 19:50:00 24.8 C 15.25 g/m*3 24.8 C 0 km/h
1177 24-07-2015 19:55:00 24.9 C 15.57 g/m*3 24.9 C 0 km/h
1178 24-07-2015 20:00:00 25 C 15.42 g/m*3 25 C 0 km/h
1179 24-07-2015 20:05:00 25.1 C 15.51 g/m*3 25.1 C 0 km/h
1180 24-07-2015 20:10:00 25.2 C 15.6 g/m*3 25.2 C 0 km/h
1181 24-07-2015 20:15:00 25.2 C 15.36 g/m*3 25.2 C 0 km/h
1182 24-07-2015 20:20:00 25 C 15.42 g/m*3 25 C 0 km/h
1183 24-07-2015 20:25:00 24.8 C 15.25 g/m*3 24.8 C 0 km/h
1184 24-07-2015 20:30:00 24.6 C 15.08 g/m*3 24.6 C 0 km/h
1185 24-07-2015 20:35:00 24.3 C 15.05 g/m*3 24.3 C 0 km/h
1186 24-07-2015 20:40:00 24.1 C 14.88 g/m*3 24.1 C 0 km/h
1187 24-07-2015 20:45:00 23.9 C 14.71 g/m*3 23.9 C 0 km/h
1188 24-07-2015 20:50:00 23.8 C 14.84 g/m*3 23.8 C 0 km/h
1189 24-07-2015 20:55:00 23.6 C 14.68 g/m*3 23.6 C 1.6 km/h
1190 24-07-2015 21:00:00 23.6 C 14.46 g/m*3 23.6 C 0 km/h
1191 24-07-2015 21:05:00 23.5 C 14.8 g/m*3 23.5 C 0 km/h
1192 24-07-2015 21:10:00 23.4 C 14.72 g/m*3 23.4 C 0 km/h
1193 24-07-2015 21:15:00 23.3 C 14.43 g/m*3 23.3 C 0 km/h
1194 24-07-2015 21:20:00 23.2 C 14.55 g/m*3 23.2 C 0 km/h
1195 24-07-2015 21:25:00 23 C 14.18 g/m*3 23 C 0 km/h
1196 24-07-2015 21:30:00 22.8 C 14.02 g/m*3 22.8 C 0 km/h
1197 24-07-2015 21:35:00 22.8 C 14.02 g/m*3 22.8 C 1.6 km/h
1198 24-07-2015 21:40:00 22.7 C 14.14 g/m*3 22.7 C 0 km/h
1199 24-07-2015 21:45:00 22.7 C 14.34 g/m*3 22.7 C 0 km/h
1200 24-07-2015 21:50:00 22.7 C 14.55 g/m*3 22.7 C 0 km/h
Sensor: Nr:Datum:Temp:Abs-Feuchte:Windchill:Wind:
Aussen-T/F 1201 24-07-2015 21:55:00 22.7 C 14.55 g/m*3 22.7 C 1.6 km/h
1202 24-07-2015 22:00:00 22.7 C 14.55 g/m*3 22.7 C 0 km/h
1203 24-07-2015 22:05:00 22.7 C 14.55 g/m*3 22.7 C 0 km/h
1204 24-07-2015 22:10:00 22.7 C 14.34 g/m*3 22.7 C 0 km/h
1205 24-07-2015 22:15:00 22.7 C 14.34 g/m*3 22.7 C 0 km/h
1206 24-07-2015 22:20:00 22.7 C 14.75 g/m*3 22.7 C 0 km/h
1207 24-07-2015 22:25:00 22.7 C 14.75 g/m*3 22.7 C 0 km/h
1208 24-07-2015 22:30:00 22.6 C 14.66 g/m*3 22.6 C 0 km/h
1209 24-07-2015 22:35:00 22.6 C 14.46 g/m*3 22.6 C 1.6 km/h
1210 24-07-2015 22:40:00 22.8 C 13.82 g/m*3 22.8 C 1.6 km/h
1211 24-07-2015 22:45:00 23.6 C 14.25 g/m*3 23.6 C 20.9 km/h
1212 24-07-2015 22:50:00 23.6 C 14.25 g/m*3 23.6 C 20.9 km/h
1213 24-07-2015 22:55:00 23.1 C 14.47 g/m*3 23.1 C 25.7 km/h
1214 24-07-2015 23:00:00 22.5 C 14.78 g/m*3 22.5 C 19.3 km/h
1215 24-07-2015 23:05:00 21.8 C 14.97 g/m*3 21.8 C 22.5 km/h
1216 24-07-2015 23:10:00 21.1 C 14.92 g/m*3 21.1 C 11.3 km/h
1217 24-07-2015 23:15:00 20.4 C 14.86 g/m*3 20.4 C 9.7 km/h
1218 24-07-2015 23:20:00 19.9 C 14.78 g/m*3 19.9 C 8.1 km/h
1219 24-07-2015 23:25:00 19.6 C 14.69 g/m*3 19.6 C 9.7 km/h
1220 24-07-2015 23:30:00 19.3 C 14.6 g/m*3 19.3 C 8.1 km/h
1221 24-07-2015 23:35:00 19.1 C 14.59 g/m*3 19.1 C 6.4 km/h
1222 24-07-2015 23:40:00 19.1 C 14.59 g/m*3 19.1 C 8.1 km/h
1223 24-07-2015 23:45:00 19.1 C 14.59 g/m*3 19.1 C 16.1 km/h
1224 24-07-2015 23:50:00 18.9 C 14.42 g/m*3 18.9 C 6.4 km/h
1225 24-07-2015 23:55:00 18.9 C 14.58 g/m*3 18.9 C 0 km/h
Sensor: Nr:Datum:Temp:Abs-Feuchte:Windchill:Wind:
Aussen-T/F 1226 25-07-2015 00:00:00 18.8 C 14.66 g/m*3 18.8 C 0 km/h
1227 25-07-2015 00:05:00 18.7 C 14.57 g/m*3 18.7 C 0 km/h
1228 25-07-2015 00:10:00 18.6 C 14.48 g/m*3 18.6 C 0 km/h
1229 25-07-2015 00:15:00 18.5 C 14.4 g/m*3 18.5 C 6.4 km/h
1230 25-07-2015 00:20:00 18.4 C 14.31 g/m*3 18.4 C 4.8 km/h
1231 25-07-2015 00:25:00 18.4 C 14.47 g/m*3 18.4 C 1.6 km/h
1232 25-07-2015 00:30:00 18.3 C 14.38 g/m*3 18.3 C 0 km/h
1233 25-07-2015 00:35:00 18.3 C 14.54 g/m*3 18.3 C 0 km/h
1234 25-07-2015 00:40:00 18.2 C 14.46 g/m*3 18.2 C 0 km/h
1235 25-07-2015 00:45:00 18.2 C 14.46 g/m*3 18.2 C 0 km/h
1236 25-07-2015 00:50:00 18.1 C 14.37 g/m*3 18.1 C 0 km/h
1237 25-07-2015 00:55:00 18 C 14.44 g/m*3 18 C 1.6 km/h
1238 25-07-2015 01:00:00 17.9 C 14.35 g/m*3 17.9 C 0 km/h
1239 25-07-2015 01:05:00 17.9 C 14.35 g/m*3 17.9 C 1.6 km/h
1240 25-07-2015 01:10:00 17.8 C 14.27 g/m*3 17.8 C 0 km/h
1241 25-07-2015 01:15:00 17.8 C 14.27 g/m*3 17.8 C 0 km/h
1242 25-07-2015 01:20:00 17.8 C 14.27 g/m*3 17.8 C 0 km/h
1243 25-07-2015 01:25:00 17.8 C 14.42 g/m*3 17.8 C 0 km/h
1244 25-07-2015 01:30:00 17.8 C 14.42 g/m*3 17.8 C 0 km/h
1245 25-07-2015 01:35:00 17.8 C 14.42 g/m*3 17.8 C 0 km/h
1246 25-07-2015 01:40:00 17.8 C 14.42 g/m*3 17.8 C 0 km/h
1247 25-07-2015 01:45:00 17.7 C 14.33 g/m*3 17.7 C 0 km/h
1248 25-07-2015 01:50:00 17.7 C 14.33 g/m*3 17.7 C 0 km/h
1249 25-07-2015 01:55:00 17.6 C 14.25 g/m*3 17.6 C 0 km/h
1250 25-07-2015 02:00:00 17.6 C 14.25 g/m*3 17.6 C 0 km/h
Sensor: Nr:Datum:Temp:Abs-Feuchte:Windchill:Wind:
Aussen-T/F 1251 25-07-2015 02:05:00 17.6 C 14.25 g/m*3 17.6 C 0 km/h
1252 25-07-2015 02:10:00 17.6 C 14.25 g/m*3 17.6 C 0 km/h
1253 25-07-2015 02:15:00 17.6 C 14.25 g/m*3 17.6 C 1.6 km/h
1254 25-07-2015 02:20:00 17.6 C 14.25 g/m*3 17.6 C 0 km/h
1255 25-07-2015 02:25:00 17.5 C 14.16 g/m*3 17.5 C 0 km/h
1256 25-07-2015 02:30:00 17.4 C 14.08 g/m*3 17.4 C 0 km/h
1257 25-07-2015 02:35:00 17.4 C 14.08 g/m*3 17.4 C 0 km/h
1258 25-07-2015 02:40:00 17.4 C 14.08 g/m*3 17.4 C 0 km/h
1259 25-07-2015 02:45:00 17.3 C 14 g/m*3 17.3 C 0 km/h
1260 25-07-2015 02:50:00 17.3 C 14 g/m*3 17.3 C 0 km/h
1261 25-07-2015 02:55:00 17.3 C 14 g/m*3 17.3 C 0 km/h
1262 25-07-2015 03:00:00 17.2 C 13.91 g/m*3 17.2 C 0 km/h
1263 25-07-2015 03:05:00 17.2 C 14.06 g/m*3 17.2 C 0 km/h
1264 25-07-2015 03:10:00 17.2 C 13.91 g/m*3 17.2 C 0 km/h
1265 25-07-2015 03:15:00 17.1 C 13.83 g/m*3 17.1 C 0 km/h
1266 25-07-2015 03:20:00 17.1 C 13.83 g/m*3 17.1 C 0 km/h
1267 25-07-2015 03:25:00 17 C 13.89 g/m*3 17 C 1.6 km/h
1268 25-07-2015 03:30:00 16.9 C 13.81 g/m*3 16.9 C 0 km/h
1269 25-07-2015 03:35:00 16.8 C 13.73 g/m*3 16.8 C 0 km/h
1270 25-07-2015 03:40:00 16.8 C 13.58 g/m*3 16.8 C 1.6 km/h
1271 25-07-2015 03:45:00 16.8 C 13.73 g/m*3 16.8 C 0 km/h
1272 25-07-2015 03:50:00 16.7 C 13.64 g/m*3 16.7 C 1.6 km/h
1273 25-07-2015 03:55:00 16.7 C 13.64 g/m*3 16.7 C 0 km/h
1274 25-07-2015 04:00:00 16.6 C 13.56 g/m*3 16.6 C 0 km/h
1275 25-07-2015 04:05:00 16.6 C 13.56 g/m*3 16.6 C 0 km/h
Sensor: Nr:Datum:Temp:Abs-Feuchte:Windchill:Wind:
Aussen-T/F 1276 25-07-2015 04:10:00 16.6 C 13.56 g/m*3 16.6 C 0 km/h
1277 25-07-2015 04:15:00 16.6 C 13.56 g/m*3 16.6 C 1.6 km/h
1278 25-07-2015 04:20:00 16.6 C 13.56 g/m*3 16.6 C 0 km/h
1279 25-07-2015 04:25:00 16.6 C 13.56 g/m*3 16.6 C 0 km/h
1280 25-07-2015 06:40:00 16.8 C 13.73 g/m*3 16.8 C 1.6 km/h
1281 25-07-2015 06:45:00 16.8 C 13.73 g/m*3 16.8 C 3.2 km/h
1282 25-07-2015 06:50:00 16.8 C 13.73 g/m*3 16.8 C 1.6 km/h
1283 25-07-2015 07:45:00 17.2 C 13.62 g/m*3 17.2 C 14.5 km/h
1284 25-07-2015 07:50:00 17.4 C 13.78 g/m*3 17.4 C 1.6 km/h
1285 25-07-2015 07:55:00 17.4 C 13.78 g/m*3 17.4 C 4.8 km/h
1286 25-07-2015 08:00:00 17.4 C 13.63 g/m*3 17.4 C 8.1 km/h
1287 25-07-2015 08:05:00 17.7 C 13.73 g/m*3 17.7 C 6.4 km/h
1288 25-07-2015 08:10:00 18 C 13.52 g/m*3 18 C 12.9 km/h
1289 25-07-2015 08:15:00 18.6 C 13.85 g/m*3 18.6 C 8.1 km/h
1290 25-07-2015 08:20:00 19.1 C 13.77 g/m*3 19.1 C 11.3 km/h
1291 25-07-2015 08:25:00 19.4 C 13.35 g/m*3 19.4 C 19.3 km/h
1292 25-07-2015 08:30:00 19.4 C 13.35 g/m*3 19.4 C 14.5 km/h
1293 25-07-2015 08:35:00 19.4 C 13.18 g/m*3 19.4 C 9.7 km/h
1294 25-07-2015 08:40:00 19.3 C 13.1 g/m*3 19.3 C 11.3 km/h
1295 25-07-2015 08:45:00 19.4 C 13.18 g/m*3 19.4 C 22.5 km/h
1296 25-07-2015 08:50:00 19.4 C 12.85 g/m*3 19.4 C 20.9 km/h
1297 25-07-2015 08:55:00 19.6 C 12.83 g/m*3 19.6 C 20.9 km/h
1298 25-07-2015 09:00:00 19.7 C 12.74 g/m*3 19.7 C 19.3 km/h
1299 25-07-2015 09:05:00 19.8 C 12.64 g/m*3 19.8 C 24.1 km/h
1300 25-07-2015 09:10:00 19.9 C 12.71 g/m*3 19.9 C 19.3 km/h
Sensor: Nr:Datum:Temp:Abs-Feuchte:Windchill:Wind:
Aussen-T/F 1301 25-07-2015 09:15:00 19.9 C 12.54 g/m*3 19.9 C 22.5 km/h
1302 25-07-2015 09:20:00 20.1 C 12.69 g/m*3 20.1 C 27.4 km/h
1303 25-07-2015 09:25:00 20.2 C 12.41 g/m*3 20.2 C 19.3 km/h
1304 25-07-2015 09:30:00 20.3 C 12.66 g/m*3 20.3 C 16.1 km/h
1305 25-07-2015 09:35:00 20.3 C 12.49 g/m*3 20.3 C 25.7 km/h
1306 25-07-2015 09:40:00 20.2 C 12.59 g/m*3 20.2 C 24.1 km/h
1307 25-07-2015 09:45:00 20.1 C 12.52 g/m*3 20.1 C 22.5 km/h
1308 25-07-2015 09:50:00 19.8 C 12.47 g/m*3 19.8 C 24.1 km/h
1309 25-07-2015 09:55:00 19.7 C 12.57 g/m*3 19.7 C 17.7 km/h
1310 25-07-2015 10:00:00 19.8 C 12.47 g/m*3 19.8 C 27.4 km/h
1311 25-07-2015 10:05:00 20 C 12.62 g/m*3 20 C 25.7 km/h
1312 25-07-2015 10:10:00 20.3 C 12.84 g/m*3 20.3 C 30.6 km/h
1313 25-07-2015 10:15:00 20.1 C 12.86 g/m*3 20.1 C 30.6 km/h
1314 25-07-2015 10:20:00 19.6 C 13.17 g/m*3 19.6 C 19.3 km/h
1315 25-07-2015 10:25:00 19.1 C 13.28 g/m*3 19.1 C 20.9 km/h
1316 25-07-2015 10:30:00 18.8 C 13.37 g/m*3 18.8 C 20.9 km/h
1317 25-07-2015 10:35:00 18.7 C 13.13 g/m*3 18.7 C 20.9 km/h
1318 25-07-2015 10:40:00 18.7 C 13.29 g/m*3 18.7 C 19.3 km/h
1319 25-07-2015 10:45:00 18.8 C 13.37 g/m*3 18.8 C 24.1 km/h
1320 25-07-2015 10:50:00 19.2 C 13.36 g/m*3 19.2 C 25.7 km/h
1321 25-07-2015 10:55:00 19.2 C 13.19 g/m*3 19.2 C 25.7 km/h
1322 25-07-2015 11:00:00 19.1 C 12.95 g/m*3 19.1 C 30.6 km/h
1323 25-07-2015 11:05:00 18.7 C 12.81 g/m*3 18.7 C 17.7 km/h
1324 25-07-2015 11:10:00 18.4 C 13.05 g/m*3 18.4 C 11.3 km/h
1325 25-07-2015 11:15:00 18 C 12.75 g/m*3 18 C 17.7 km/h
Sensor: Nr:Datum:Temp:Abs-Feuchte:Windchill:Wind:
Aussen-T/F 1326 25-07-2015 11:20:00 18 C 12.75 g/m*3 18 C 19.3 km/h
1327 25-07-2015 11:25:00 18 C 12.9 g/m*3 18 C 17.7 km/h
1328 25-07-2015 11:30:00 17.9 C 12.67 g/m*3 17.9 C 12.9 km/h
1329 25-07-2015 11:35:00 17.9 C 12.67 g/m*3 17.9 C 9.7 km/h
1330 25-07-2015 11:40:00 18 C 12.9 g/m*3 18 C 19.3 km/h
1331 25-07-2015 11:45:00 18.1 C 12.98 g/m*3 18.1 C 16.1 km/h
1332 25-07-2015 11:50:00 18.2 C 13.06 g/m*3 18.2 C 24.1 km/h
1333 25-07-2015 11:55:00 18.2 C 12.9 g/m*3 18.2 C 24.1 km/h
1334 25-07-2015 12:00:00 18.2 C 13.06 g/m*3 18.2 C 4.8 km/h
1335 25-07-2015 12:05:00 18.2 C 13.06 g/m*3 18.2 C 9.7 km/h
1336 25-07-2015 12:10:00 18.6 C 13.53 g/m*3 18.6 C 14.5 km/h
1337 25-07-2015 12:15:00 18.9 C 13.45 g/m*3 18.9 C 12.9 km/h
1338 25-07-2015 12:20:00 18.7 C 12.81 g/m*3 18.7 C 17.7 km/h
1339 25-07-2015 12:25:00 18.5 C 12.5 g/m*3 18.5 C 16.1 km/h
1340 25-07-2015 12:30:00 18.5 C 12.82 g/m*3 18.5 C 14.5 km/h
1341 25-07-2015 12:35:00 18.5 C 12.5 g/m*3 18.5 C 20.9 km/h
1342 25-07-2015 12:40:00 18.3 C 12.51 g/m*3 18.3 C 16.1 km/h
1343 25-07-2015 12:45:00 17.7 C 12.37 g/m*3 17.7 C 12.9 km/h
1344 25-07-2015 12:50:00 17.1 C 12.23 g/m*3 17.1 C 14.5 km/h
1345 25-07-2015 12:55:00 16.7 C 11.94 g/m*3 16.7 C 11.3 km/h
1346 25-07-2015 13:00:00 16.7 C 12.22 g/m*3 16.7 C 8.1 km/h
1347 25-07-2015 13:05:00 16.8 C 12.15 g/m*3 16.8 C 14.5 km/h
1348 25-07-2015 13:10:00 17 C 12.3 g/m*3 17 C 6.4 km/h
1349 25-07-2015 13:15:00 17.3 C 12.23 g/m*3 17.3 C 17.7 km/h
1350 25-07-2015 13:20:00 17.7 C 12.07 g/m*3 17.7 C 14.5 km/h
Sensor: Nr:Datum:Temp:Abs-Feuchte:Windchill:Wind:
Aussen-T/F 1351 25-07-2015 13:25:00 17.9 C 11.76 g/m*3 17.9 C 16.1 km/h
1352 25-07-2015 13:30:00 17.9 C 11.45 g/m*3 17.9 C 14.5 km/h
1353 25-07-2015 13:35:00 18 C 11.67 g/m*3 18 C 16.1 km/h
1354 25-07-2015 13:40:00 18.3 C 11.57 g/m*3 18.3 C 14.5 km/h
1355 25-07-2015 13:45:00 18.3 C 11.57 g/m*3 18.3 C 24.1 km/h
1356 25-07-2015 13:50:00 18.3 C 11.26 g/m*3 18.3 C 25.7 km/h
1357 25-07-2015 13:55:00 18.1 C 10.82 g/m*3 18.1 C 25.7 km/h
1358 25-07-2015 14:00:00 18.2 C 11.04 g/m*3 18.2 C 22.5 km/h
1359 25-07-2015 14:05:00 18.4 C 11.01 g/m*3 18.4 C 30.6 km/h
1360 25-07-2015 14:10:00 18.7 C 10.89 g/m*3 18.7 C 24.1 km/h
1361 25-07-2015 14:15:00 18.8 C 10.95 g/m*3 18.8 C 27.4 km/h
1362 25-07-2015 14:20:00 19.1 C 11.15 g/m*3 19.1 C 25.7 km/h
1363 25-07-2015 14:25:00 19.2 C 11.05 g/m*3 19.2 C 19.3 km/h
1364 25-07-2015 14:30:00 18.9 C 10.53 g/m*3 18.9 C 30.6 km/h
1365 25-07-2015 14:35:00 18.7 C 10.57 g/m*3 18.7 C 29 km/h
1366 25-07-2015 14:40:00 18.8 C 10.79 g/m*3 18.8 C 24.1 km/h
1367 25-07-2015 14:45:00 18.9 C 10.53 g/m*3 18.9 C 29 km/h
1368 25-07-2015 14:50:00 19.1 C 10.66 g/m*3 19.1 C 20.9 km/h
1369 25-07-2015 14:55:00 19.2 C 10.39 g/m*3 19.2 C 24.1 km/h
1370 25-07-2015 15:00:00 19 C 10.43 g/m*3 19 C 22.5 km/h
1371 25-07-2015 15:05:00 18.8 C 10.47 g/m*3 18.8 C 30.6 km/h
1372 25-07-2015 15:10:00 18.7 C 10.57 g/m*3 18.7 C 20.9 km/h
1373 25-07-2015 15:15:00 18.7 C 10.57 g/m*3 18.7 C 14.5 km/h
1374 25-07-2015 15:20:00 18.9 C 10.53 g/m*3 18.9 C 19.3 km/h
1375 25-07-2015 15:25:00 19.2 C 10.39 g/m*3 19.2 C 24.1 km/h
Sensor: Nr:Datum:Temp:Abs-Feuchte:Windchill:Wind:
Aussen-T/F 1376 25-07-2015 15:30:00 19.1 C 10.16 g/m*3 19.1 C 24.1 km/h
1377 25-07-2015 15:35:00 18.8 C 10.15 g/m*3 18.8 C 22.5 km/h
1378 25-07-2015 15:40:00 18.6 C 9.87 g/m*3 18.6 C 30.6 km/h
1379 25-07-2015 15:45:00 18.5 C 9.97 g/m*3 18.5 C 24.1 km/h
1380 25-07-2015 15:50:00 18.6 C 10.19 g/m*3 18.6 C 20.9 km/h
1381 25-07-2015 15:55:00 18.6 C 10.03 g/m*3 18.6 C 33.8 km/h
1382 25-07-2015 16:00:00 18.3 C 9.85 g/m*3 18.3 C 29 km/h
1383 25-07-2015 16:05:00 18.2 C 10.1 g/m*3 18.2 C 20.9 km/h
1384 25-07-2015 16:10:00 18.1 C 10.2 g/m*3 18.1 C 19.3 km/h
1385 25-07-2015 16:15:00 18.1 C 10.35 g/m*3 18.1 C 25.7 km/h
1386 25-07-2015 16:20:00 18.2 C 9.79 g/m*3 18.2 C 25.7 km/h
1387 25-07-2015 16:25:00 18.1 C 10.04 g/m*3 18.1 C 27.4 km/h
1388 25-07-2015 16:30:00 17.9 C 10.23 g/m*3 17.9 C 25.7 km/h
1389 25-07-2015 16:35:00 18.1 C 10.35 g/m*3 18.1 C 30.6 km/h
1390 25-07-2015 16:40:00 18.3 C 10.48 g/m*3 18.3 C 22.5 km/h
1391 25-07-2015 16:45:00 18.4 C 10.38 g/m*3 18.4 C 22.5 km/h
1392 25-07-2015 16:50:00 18.3 C 10.32 g/m*3 18.3 C 20.9 km/h
1393 25-07-2015 16:55:00 18.1 C 10.04 g/m*3 18.1 C 27.4 km/h
1394 25-07-2015 17:00:00 17.9 C 10.08 g/m*3 17.9 C 20.9 km/h
1395 25-07-2015 17:05:00 17.7 C 9.96 g/m*3 17.7 C 24.1 km/h
1396 25-07-2015 17:10:00 17.7 C 10.26 g/m*3 17.7 C 16.1 km/h
1397 25-07-2015 17:15:00 17.6 C 10.05 g/m*3 17.6 C 27.4 km/h
1398 25-07-2015 17:20:00 17.5 C 9.99 g/m*3 17.5 C 38.6 km/h
1399 25-07-2015 17:25:00 17.3 C 10.02 g/m*3 17.3 C 38.6 km/h
1400 25-07-2015 17:30:00 17.1 C 10.19 g/m*3 17.1 C 19.3 km/h
Sensor: Nr:Datum:Temp:Abs-Feuchte:Windchill:Wind:
Aussen-T/F 1401 25-07-2015 17:35:00 17.2 C 10.25 g/m*3 17.2 C 19.3 km/h
1402 25-07-2015 17:40:00 17.1 C 10.19 g/m*3 17.1 C 24.1 km/h
1403 25-07-2015 17:45:00 17.1 C 10.19 g/m*3 17.1 C 17.7 km/h
1404 25-07-2015 17:50:00 16.9 C 10.07 g/m*3 16.9 C 19.3 km/h
1405 25-07-2015 17:55:00 16.8 C 10.15 g/m*3 16.8 C 17.7 km/h
1406 25-07-2015 18:00:00 16.8 C 10.01 g/m*3 16.8 C 22.5 km/h
1407 25-07-2015 18:05:00 16.8 C 9.87 g/m*3 16.8 C 25.7 km/h
1408 25-07-2015 18:10:00 16.8 C 9.87 g/m*3 16.8 C 25.7 km/h
1409 25-07-2015 18:15:00 16.8 C 9.72 g/m*3 16.8 C 33.8 km/h
1410 25-07-2015 18:20:00 16.8 C 9.72 g/m*3 16.8 C 25.7 km/h
1411 25-07-2015 18:25:00 16.8 C 9.58 g/m*3 16.8 C 22.5 km/h
1412 25-07-2015 18:30:00 16.8 C 9.58 g/m*3 16.8 C 17.7 km/h
1413 25-07-2015 18:35:00 16.8 C 9.72 g/m*3 16.8 C 19.3 km/h
1414 25-07-2015 18:40:00 16.9 C 9.64 g/m*3 16.9 C 25.7 km/h
1415 25-07-2015 18:45:00 16.9 C 9.78 g/m*3 16.9 C 25.7 km/h
1416 25-07-2015 18:50:00 16.8 C 9.72 g/m*3 16.8 C 20.9 km/h
1417 25-07-2015 18:55:00 16.8 C 9.58 g/m*3 16.8 C 14.5 km/h
1418 25-07-2015 19:00:00 16.8 C 9.58 g/m*3 16.8 C 25.7 km/h
1419 25-07-2015 19:05:00 16.8 C 9.44 g/m*3 16.8 C 19.3 km/h
1420 25-07-2015 19:10:00 16.8 C 9.58 g/m*3 16.8 C 17.7 km/h
1421 25-07-2015 19:15:00 16.8 C 9.58 g/m*3 16.8 C 12.9 km/h
1422 25-07-2015 19:20:00 16.7 C 9.52 g/m*3 16.7 C 17.7 km/h
1423 25-07-2015 19:25:00 16.6 C 9.46 g/m*3 16.6 C 20.9 km/h
1424 25-07-2015 19:30:00 16.6 C 9.61 g/m*3 16.6 C 17.7 km/h
1425 25-07-2015 19:35:00 16.5 C 9.55 g/m*3 16.5 C 19.3 km/h
Sensor: Nr:Datum:Temp:Abs-Feuchte:Windchill:Wind:
Aussen-T/F 1426 25-07-2015 19:40:00 16.4 C 9.63 g/m*3 16.4 C 14.5 km/h
1427 25-07-2015 19:45:00 16.4 C 9.49 g/m*3 16.4 C 22.5 km/h
1428 25-07-2015 19:50:00 16.4 C 9.49 g/m*3 16.4 C 14.5 km/h
1429 25-07-2015 19:55:00 16.4 C 9.49 g/m*3 16.4 C 16.1 km/h
1430 25-07-2015 20:00:00 16.4 C 9.49 g/m*3 16.4 C 17.7 km/h
1431 25-07-2015 20:05:00 16.4 C 9.49 g/m*3 16.4 C 17.7 km/h
1432 25-07-2015 20:10:00 16.3 C 9.43 g/m*3 16.3 C 24.1 km/h
1433 25-07-2015 20:15:00 16.2 C 9.38 g/m*3 16.2 C 17.7 km/h
1434 25-07-2015 20:20:00 16.2 C 9.38 g/m*3 16.2 C 27.4 km/h
1435 25-07-2015 20:25:00 16.1 C 9.18 g/m*3 16.1 C 17.7 km/h
1436 25-07-2015 20:30:00 16 C 8.99 g/m*3 16 C 19.3 km/h
1437 25-07-2015 20:35:00 16 C 9.13 g/m*3 16 C 16.1 km/h
1438 25-07-2015 20:40:00 16 C 9.13 g/m*3 16 C 16.1 km/h
1439 25-07-2015 20:45:00 16.1 C 9.05 g/m*3 16.1 C 22.5 km/h
1440 25-07-2015 20:50:00 16 C 8.86 g/m*3 16 C 14.5 km/h
1441 25-07-2015 20:55:00 15.9 C 8.8 g/m*3 15.9 C 22.5 km/h
1442 25-07-2015 21:00:00 15.8 C 8.88 g/m*3 15.8 C 16.1 km/h
1443 25-07-2015 21:05:00 15.7 C 8.83 g/m*3 15.7 C 11.3 km/h
1444 25-07-2015 21:10:00 15.6 C 8.78 g/m*3 15.6 C 6.4 km/h
1445 25-07-2015 21:15:00 15.4 C 8.8 g/m*3 15.4 C 9.7 km/h
1446 25-07-2015 21:20:00 15.3 C 8.75 g/m*3 15.3 C 16.1 km/h
1447 25-07-2015 21:25:00 15.2 C 8.96 g/m*3 15.2 C 8.1 km/h
1448 25-07-2015 21:30:00 15.1 C 8.9 g/m*3 15.1 C 11.3 km/h
1449 25-07-2015 21:35:00 14.9 C 8.92 g/m*3 14.9 C 14.5 km/h
1450 25-07-2015 21:40:00 14.8 C 8.99 g/m*3 14.8 C 12.9 km/h
Sensor: Nr:Datum:Temp:Abs-Feuchte:Windchill:Wind:
Aussen-T/F 1451 25-07-2015 21:45:00 14.8 C 8.99 g/m*3 14.8 C 9.7 km/h
1452 25-07-2015 21:50:00 14.7 C 8.94 g/m*3 14.7 C 12.9 km/h
1453 25-07-2015 21:55:00 14.6 C 8.88 g/m*3 14.6 C 12.9 km/h
1454 25-07-2015 22:00:00 14.5 C 8.95 g/m*3 14.5 C 12.9 km/h
1455 25-07-2015 22:05:00 14.4 C 8.9 g/m*3 14.4 C 16.1 km/h
1456 25-07-2015 22:10:00 14.3 C 8.85 g/m*3 14.3 C 16.1 km/h
1457 25-07-2015 22:15:00 14.3 C 8.85 g/m*3 14.3 C 8.1 km/h
1458 25-07-2015 22:20:00 14.3 C 8.85 g/m*3 14.3 C 11.3 km/h
1459 25-07-2015 22:25:00 14.2 C 8.91 g/m*3 14.2 C 9.7 km/h
1460 25-07-2015 22:30:00 14.2 C 8.91 g/m*3 14.2 C 8.1 km/h
1461 25-07-2015 22:35:00 14.1 C 8.86 g/m*3 14.1 C 3.2 km/h
1462 25-07-2015 22:40:00 14 C 8.93 g/m*3 14 C 4.8 km/h
1463 25-07-2015 22:45:00 13.9 C 8.87 g/m*3 13.9 C 8.1 km/h
1464 25-07-2015 22:50:00 13.9 C 8.87 g/m*3 13.9 C 3.2 km/h
1465 25-07-2015 22:55:00 13.9 C 8.87 g/m*3 13.9 C 4.8 km/h
1466 25-07-2015 23:00:00 13.8 C 8.94 g/m*3 13.8 C 3.2 km/h
1467 25-07-2015 23:05:00 13.8 C 9.06 g/m*3 13.8 C 3.2 km/h
1468 25-07-2015 23:10:00 13.7 C 9 g/m*3 13.7 C 4.8 km/h
1469 25-07-2015 23:15:00 13.7 C 9 g/m*3 13.7 C 3.2 km/h
1470 25-07-2015 23:20:00 13.6 C 9.06 g/m*3 13.6 C 1.6 km/h
1471 25-07-2015 23:25:00 13.5 C 9.01 g/m*3 13.5 C 3.2 km/h
1472 25-07-2015 23:30:00 13.4 C 9.07 g/m*3 13.4 C 1.6 km/h
1473 25-07-2015 23:35:00 13.3 C 9.01 g/m*3 13.3 C 3.2 km/h
1474 25-07-2015 23:40:00 13.2 C 9.07 g/m*3 13.2 C 1.6 km/h
1475 25-07-2015 23:45:00 13.1 C 9.01 g/m*3 13.1 C 3.2 km/h
Sensor: Nr:Datum:Temp:Abs-Feuchte:Windchill:Wind:
Aussen-T/F 1476 25-07-2015 23:50:00 13.1 C 9.01 g/m*3 13.1 C 1.6 km/h
1477 25-07-2015 23:55:00 13 C 9.07 g/m*3 13 C 1.6 km/h
1478 26-07-2015 00:00:00 13 C 9.07 g/m*3 13 C 6.4 km/h
1479 26-07-2015 00:05:00 13 C 9.07 g/m*3 13 C 6.4 km/h
1480 26-07-2015 00:10:00 12.9 C 9.02 g/m*3 12.9 C 3.2 km/h
1481 26-07-2015 00:15:00 12.9 C 9.02 g/m*3 12.9 C 1.6 km/h
1482 26-07-2015 00:20:00 12.9 C 9.13 g/m*3 12.9 C 4.8 km/h
1483 26-07-2015 00:25:00 12.9 C 9.13 g/m*3 12.9 C 3.2 km/h
1484 26-07-2015 00:30:00 12.9 C 9.13 g/m*3 12.9 C 1.6 km/h
1485 26-07-2015 00:35:00 12.9 C 9.13 g/m*3 12.9 C 3.2 km/h
1486 26-07-2015 00:40:00 12.8 C 9.07 g/m*3 12.8 C 0 km/h
1487 26-07-2015 00:45:00 12.7 C 9.02 g/m*3 12.7 C 6.4 km/h
1488 26-07-2015 00:50:00 12.7 C 9.13 g/m*3 12.7 C 1.6 km/h
1489 26-07-2015 00:55:00 12.7 C 9.13 g/m*3 12.7 C 4.8 km/h
1490 26-07-2015 01:00:00 12.6 C 9.07 g/m*3 12.6 C 6.4 km/h
1491 26-07-2015 01:05:00 12.6 C 9.07 g/m*3 12.6 C 3.2 km/h
1492 26-07-2015 01:10:00 12.5 C 9.02 g/m*3 12.5 C 0 km/h
1493 26-07-2015 01:15:00 12.5 C 9.02 g/m*3 12.5 C 6.4 km/h
1494 26-07-2015 01:20:00 12.4 C 9.07 g/m*3 12.4 C 1.6 km/h
1495 26-07-2015 01:25:00 12.4 C 9.07 g/m*3 12.4 C 3.2 km/h
1496 26-07-2015 01:30:00 12.3 C 9.01 g/m*3 12.3 C 6.4 km/h
1497 26-07-2015 01:35:00 12.2 C 9.06 g/m*3 12.2 C 0 km/h
1498 26-07-2015 01:40:00 12.2 C 9.06 g/m*3 12.2 C 3.2 km/h
1499 26-07-2015 01:45:00 12.1 C 9.01 g/m*3 12.1 C 3.2 km/h
1500 26-07-2015 01:50:00 12.1 C 9.01 g/m*3 12.1 C 6.4 km/h
Sensor: Nr:Datum:Temp:Abs-Feuchte:Windchill:Wind:
Aussen-T/F 1501 26-07-2015 01:55:00 12 C 9.06 g/m*3 12 C 1.6 km/h
1502 26-07-2015 02:00:00 11.9 C 9 g/m*3 11.9 C 1.6 km/h
1503 26-07-2015 02:05:00 11.9 C 9 g/m*3 11.9 C 0 km/h
1504 26-07-2015 02:10:00 11.9 C 9 g/m*3 11.9 C 1.6 km/h
1505 26-07-2015 02:15:00 11.9 C 9 g/m*3 11.9 C 1.6 km/h
1506 26-07-2015 02:20:00 12 C 9.06 g/m*3 12 C 4.8 km/h
1507 26-07-2015 02:25:00 12.1 C 9.12 g/m*3 12.1 C 0 km/h
1508 26-07-2015 02:30:00 12.1 C 9.01 g/m*3 12.1 C 6.4 km/h
1509 26-07-2015 02:35:00 12.2 C 9.06 g/m*3 12.2 C 3.2 km/h
1510 26-07-2015 02:40:00 12.2 C 9.06 g/m*3 12.2 C 0 km/h
1511 26-07-2015 02:45:00 12.1 C 9.01 g/m*3 12.1 C 3.2 km/h
1512 26-07-2015 02:50:00 12 C 8.95 g/m*3 12 C 4.8 km/h
1513 26-07-2015 02:55:00 12 C 9.06 g/m*3 12 C 3.2 km/h
1514 26-07-2015 03:00:00 11.9 C 9 g/m*3 11.9 C 0 km/h
1515 26-07-2015 03:05:00 11.9 C 9 g/m*3 11.9 C 1.6 km/h
1516 26-07-2015 03:10:00 11.9 C 9 g/m*3 11.9 C 6.4 km/h
1517 26-07-2015 03:15:00 11.9 C 9 g/m*3 11.9 C 6.4 km/h
1518 26-07-2015 03:20:00 11.9 C 9 g/m*3 11.9 C 1.6 km/h
1519 26-07-2015 03:25:00 11.9 C 9 g/m*3 11.9 C 4.8 km/h
1520 26-07-2015 03:30:00 11.9 C 9 g/m*3 11.9 C 3.2 km/h
1521 26-07-2015 03:35:00 11.8 C 8.95 g/m*3 11.8 C 6.4 km/h
1522 26-07-2015 03:40:00 11.8 C 8.95 g/m*3 11.8 C 3.2 km/h
1523 26-07-2015 03:45:00 11.8 C 8.95 g/m*3 11.8 C 6.4 km/h
1524 26-07-2015 03:50:00 11.8 C 8.95 g/m*3 11.8 C 3.2 km/h
1525 26-07-2015 04:15:00 11.1 C 8.76 g/m*3 11.1 C 0 km/h
Sensor: Nr:Datum:Temp:Abs-Feuchte:Windchill:Wind:
Aussen-T/F 1526 26-07-2015 04:20:00 11 C 8.81 g/m*3 11 C 0 km/h
1527 26-07-2015 04:25:00 11 C 8.81 g/m*3 11 C 3.2 km/h
1528 26-07-2015 04:30:00 10.7 C 8.74 g/m*3 10.7 C 0 km/h
1529 26-07-2015 04:35:00 10.7 C 8.74 g/m*3 10.7 C 0 km/h
1530 26-07-2015 04:40:00 10.6 C 8.69 g/m*3 10.6 C 0 km/h
1531 26-07-2015 04:45:00 10.5 C 8.73 g/m*3 10.5 C 1.6 km/h
1532 26-07-2015 04:50:00 10.4 C 8.67 g/m*3 10.4 C 0 km/h
1533 26-07-2015 04:55:00 10.4 C 8.67 g/m*3 10.4 C 1.6 km/h
1534 26-07-2015 05:00:00 10.4 C 8.67 g/m*3 10.4 C 0 km/h
1535 26-07-2015 05:05:00 10.3 C 8.71 g/m*3 10.3 C 3.2 km/h
1536 26-07-2015 05:10:00 10.3 C 8.71 g/m*3 10.3 C 0 km/h
1537 26-07-2015 05:15:00 10.3 C 8.71 g/m*3 10.3 C 1.6 km/h
1538 26-07-2015 05:20:00 10.3 C 8.71 g/m*3 10.3 C 3.2 km/h
1539 26-07-2015 05:25:00 10.3 C 8.71 g/m*3 10.3 C 4.8 km/h
1540 26-07-2015 05:30:00 10.3 C 8.71 g/m*3 10.3 C 0 km/h
1541 26-07-2015 05:35:00 10.2 C 8.66 g/m*3 10.2 C 3.2 km/h
1542 26-07-2015 05:40:00 10.2 C 8.66 g/m*3 10.2 C 1.6 km/h
1543 26-07-2015 05:45:00 10.1 C 8.61 g/m*3 10.1 C 1.6 km/h
1544 26-07-2015 05:50:00 10.1 C 8.61 g/m*3 10.1 C 1.6 km/h
1545 26-07-2015 05:55:00 9.9 C 8.5 g/m*3 9.9 C 0 km/h
1546 26-07-2015 06:00:00 9.8 C 8.44 g/m*3 9.8 C 0 km/h
1547 26-07-2015 06:05:00 9.8 C 8.54 g/m*3 9.8 C 0 km/h
1548 26-07-2015 06:10:00 9.8 C 8.54 g/m*3 9.8 C 1.6 km/h
1549 26-07-2015 06:15:00 9.8 C 8.54 g/m*3 9.8 C 0 km/h
1550 26-07-2015 06:20:00 9.9 C 8.59 g/m*3 9.9 C 4.8 km/h
Sensor: Nr:Datum:Temp:Abs-Feuchte:Windchill:Wind:
Aussen-T/F 1551 26-07-2015 06:25:00 9.9 C 8.59 g/m*3 9.9 C 0 km/h
1552 26-07-2015 06:30:00 9.9 C 8.59 g/m*3 9.9 C 4.8 km/h
1553 26-07-2015 06:35:00 9.9 C 8.59 g/m*3 9.25 C 6.4 km/h
1554 26-07-2015 06:40:00 9.9 C 8.59 g/m*3 9.9 C 3.2 km/h
1555 26-07-2015 06:45:00 9.9 C 8.59 g/m*3 9.9 C 4.8 km/h
1556 26-07-2015 06:50:00 10 C 8.64 g/m*3 10 C 3.2 km/h
1557 26-07-2015 06:55:00 10 C 8.64 g/m*3 10 C 4.8 km/h
1558 26-07-2015 07:00:00 10 C 8.64 g/m*3 9.37 C 6.4 km/h
1559 26-07-2015 07:05:00 10.1 C 8.7 g/m*3 10.1 C 4.8 km/h
1560 26-07-2015 07:10:00 10.1 C 8.7 g/m*3 9.48 C 6.4 km/h
1561 26-07-2015 07:15:00 10.1 C 8.7 g/m*3 10.1 C 0 km/h
1562 26-07-2015 07:20:00 10.1 C 8.7 g/m*3 10.1 C 0 km/h
1563 26-07-2015 07:25:00 10 C 8.64 g/m*3 10 C 0 km/h
1564 26-07-2015 07:30:00 10.1 C 8.7 g/m*3 10.1 C 3.2 km/h
1565 26-07-2015 07:35:00 10.2 C 8.85 g/m*3 10.2 C 3.2 km/h
1566 26-07-2015 07:40:00 10.2 C 8.85 g/m*3 10.2 C 3.2 km/h
1567 26-07-2015 07:45:00 10.3 C 8.91 g/m*3 10.3 C 1.6 km/h
1568 26-07-2015 07:50:00 10.3 C 8.91 g/m*3 10.3 C 3.2 km/h
1569 26-07-2015 07:55:00 10.3 C 8.91 g/m*3 10.3 C 0 km/h
1570 26-07-2015 08:00:00 10.4 C 8.87 g/m*3 10.4 C 0 km/h
1571 26-07-2015 08:05:00 10.4 C 8.87 g/m*3 10.4 C 0 km/h
1572 26-07-2015 08:10:00 10.4 C 8.96 g/m*3 10.4 C 0 km/h
1573 26-07-2015 08:15:00 10.4 C 8.96 g/m*3 10.4 C 0 km/h
1574 26-07-2015 08:20:00 11 C 9.31 g/m*3 11 C 0 km/h
1575 26-07-2015 08:25:00 11.3 C 9.38 g/m*3 11.3 C 0 km/h
Sensor: Nr:Datum:Temp:Abs-Feuchte:Windchill:Wind:
Aussen-T/F 1576 26-07-2015 08:30:00 11.6 C 9.46 g/m*3 11.6 C 0 km/h
1577 26-07-2015 08:35:00 11.9 C 9.64 g/m*3 11.9 C 8.1 km/h
1578 26-07-2015 08:40:00 12.4 C 9.72 g/m*3 12.4 C 4.8 km/h
1579 26-07-2015 08:45:00 12.8 C 9.86 g/m*3 12.8 C 4.8 km/h
1580 26-07-2015 08:50:00 13.3 C 9.82 g/m*3 13.3 C 4.8 km/h
1581 26-07-2015 08:55:00 13.7 C 9.83 g/m*3 13.7 C 8.1 km/h
1582 26-07-2015 09:00:00 13.9 C 9.71 g/m*3 13.9 C 4.8 km/h
1583 26-07-2015 09:05:00 14.1 C 9.83 g/m*3 14.1 C 6.4 km/h
1584 26-07-2015 09:10:00 14.2 C 9.89 g/m*3 14.2 C 6.4 km/h
1585 26-07-2015 09:15:00 14.2 C 9.65 g/m*3 14.2 C 4.8 km/h
1586 26-07-2015 09:20:00 14.3 C 9.83 g/m*3 14.3 C 6.4 km/h
1587 26-07-2015 09:25:00 14.4 C 9.77 g/m*3 14.4 C 4.8 km/h
1588 26-07-2015 09:30:00 14.7 C 9.69 g/m*3 14.7 C 6.4 km/h
1589 26-07-2015 09:35:00 14.9 C 9.81 g/m*3 14.9 C 6.4 km/h
1590 26-07-2015 09:40:00 15.2 C 9.73 g/m*3 15.2 C 6.4 km/h
1591 26-07-2015 09:45:00 15.3 C 9.92 g/m*3 15.3 C 6.4 km/h
1592 26-07-2015 09:50:00 15.3 C 9.79 g/m*3 15.3 C 4.8 km/h
1593 26-07-2015 09:55:00 15.5 C 9.65 g/m*3 15.5 C 8.1 km/h
1594 26-07-2015 10:00:00 15.7 C 9.63 g/m*3 15.7 C 6.4 km/h
1595 26-07-2015 10:05:00 15.8 C 9.69 g/m*3 15.8 C 6.4 km/h
1596 26-07-2015 10:10:00 16.1 C 9.73 g/m*3 16.1 C 6.4 km/h
1597 26-07-2015 10:15:00 16.4 C 9.35 g/m*3 16.4 C 6.4 km/h
1598 26-07-2015 10:20:00 16.8 C 9.29 g/m*3 16.8 C 6.4 km/h
1599 26-07-2015 10:25:00 17.1 C 9.46 g/m*3 17.1 C 4.8 km/h
1600 26-07-2015 10:30:00 17.4 C 9.48 g/m*3 17.4 C 8.1 km/h
Sensor: Nr:Datum:Temp:Abs-Feuchte:Windchill:Wind:
Aussen-T/F 1601 26-07-2015 10:35:00 17.5 C 9.39 g/m*3 17.5 C 8.1 km/h
1602 26-07-2015 10:40:00 17.8 C 9.11 g/m*3 17.8 C 8.1 km/h
1603 26-07-2015 10:45:00 17.8 C 9.71 g/m*3 17.8 C 3.2 km/h
1604 26-07-2015 10:50:00 17.6 C 10.05 g/m*3 17.6 C 0 km/h
1605 26-07-2015 10:55:00 17.5 C 9.69 g/m*3 17.5 C 11.3 km/h
1606 26-07-2015 11:00:00 17.9 C 8.86 g/m*3 17.9 C 11.3 km/h
1607 26-07-2015 11:05:00 18.4 C 9.59 g/m*3 18.4 C 3.2 km/h
1608 26-07-2015 11:10:00 18.8 C 9.18 g/m*3 18.8 C 6.4 km/h
1609 26-07-2015 11:15:00 19.1 C 9.18 g/m*3 19.1 C 9.7 km/h
1610 26-07-2015 11:20:00 19.3 C 8.79 g/m*3 19.3 C 8.1 km/h
1611 26-07-2015 11:25:00 19.6 C 8.78 g/m*3 19.6 C 12.9 km/h
1612 26-07-2015 11:30:00 19.1 C 8.52 g/m*3 19.1 C 3.2 km/h
1613 26-07-2015 11:35:00 18.8 C 8.86 g/m*3 18.8 C 0 km/h
1614 26-07-2015 11:40:00 18.9 C 9.07 g/m*3 18.9 C 3.2 km/h
1615 26-07-2015 11:45:00 19.3 C 8.46 g/m*3 19.3 C 4.8 km/h
1616 26-07-2015 11:50:00 19.3 C 8.46 g/m*3 19.3 C 9.7 km/h
1617 26-07-2015 11:55:00 19.3 C 8.96 g/m*3 19.3 C 6.4 km/h
1618 26-07-2015 12:00:00 19.5 C 8.56 g/m*3 19.5 C 6.4 km/h
1619 26-07-2015 12:05:00 19.8 C 9.91 g/m*3 19.8 C 8.1 km/h
1620 26-07-2015 12:10:00 20.4 C 9.38 g/m*3 20.4 C 11.3 km/h
1621 26-07-2015 12:15:00 20.9 C 8.74 g/m*3 20.9 C 8.1 km/h
1622 26-07-2015 12:20:00 20.9 C 8.56 g/m*3 20.9 C 6.4 km/h
1623 26-07-2015 12:25:00 20.9 C 8.74 g/m*3 20.9 C 6.4 km/h
1624 26-07-2015 12:30:00 21.1 C 8.48 g/m*3 21.1 C 8.1 km/h
1625 26-07-2015 12:35:00 21.4 C 8.62 g/m*3 21.4 C 8.1 km/h
Sensor: Nr:Datum:Temp:Abs-Feuchte:Windchill:Wind:
Aussen-T/F 1626 26-07-2015 12:40:00 21.6 C 8.72 g/m*3 21.6 C 8.1 km/h
1627 26-07-2015 12:45:00 21.6 C 9.1 g/m*3 21.6 C 4.8 km/h
1628 26-07-2015 12:50:00 21.3 C 8.76 g/m*3 21.3 C 8.1 km/h
1629 26-07-2015 12:55:00 20.8 C 8.69 g/m*3 20.8 C 3.2 km/h
1630 26-07-2015 13:00:00 20.6 C 8.59 g/m*3 20.6 C 4.8 km/h
1631 26-07-2015 13:05:00 20.4 C 8.49 g/m*3 20.4 C 9.7 km/h
1632 26-07-2015 13:10:00 20.5 C 9.25 g/m*3 20.5 C 9.7 km/h
1633 26-07-2015 13:15:00 21 C 8.61 g/m*3 21 C 9.7 km/h
1634 26-07-2015 13:20:00 21 C 8.43 g/m*3 21 C 11.3 km/h
1635 26-07-2015 13:25:00 21.1 C 8.48 g/m*3 21.1 C 11.3 km/h
1636 26-07-2015 13:30:00 21.5 C 8.67 g/m*3 21.5 C 4.8 km/h
1637 26-07-2015 13:35:00 21.8 C 8.63 g/m*3 21.8 C 4.8 km/h
1638 26-07-2015 13:40:00 21.6 C 8.35 g/m*3 21.6 C 4.8 km/h
1639 26-07-2015 13:45:00 21.6 C 9.29 g/m*3 21.6 C 3.2 km/h
1640 26-07-2015 13:50:00 22.1 C 8.2 g/m*3 22.1 C 8.1 km/h
1641 26-07-2015 13:55:00 21.9 C 8.1 g/m*3 21.9 C 6.4 km/h
1642 26-07-2015 14:00:00 21.7 C 8.39 g/m*3 21.7 C 4.8 km/h
1643 26-07-2015 14:05:00 21.7 C 8.58 g/m*3 21.7 C 6.4 km/h
1644 26-07-2015 14:10:00 22.1 C 8.2 g/m*3 22.1 C 11.3 km/h
1645 26-07-2015 14:15:00 22.1 C 8.2 g/m*3 22.1 C 11.3 km/h
1646 26-07-2015 14:20:00 21.8 C 7.87 g/m*3 21.8 C 11.3 km/h
1647 26-07-2015 14:25:00 21.7 C 8.58 g/m*3 21.7 C 6.4 km/h
1648 26-07-2015 14:30:00 21.8 C 8.25 g/m*3 21.8 C 4.8 km/h
1649 26-07-2015 14:35:00 21.8 C 8.63 g/m*3 21.8 C 6.4 km/h
1650 26-07-2015 14:40:00 21.9 C 8.88 g/m*3 21.9 C 9.7 km/h
Sensor: Nr:Datum:Temp:Abs-Feuchte:Windchill:Wind:
Aussen-T/F 1651 26-07-2015 14:45:00 22.3 C 8.49 g/m*3 22.3 C 8.1 km/h
1652 26-07-2015 14:50:00 22.7 C 8.49 g/m*3 22.7 C 8.1 km/h
1653 26-07-2015 14:55:00 23.1 C 8.48 g/m*3 23.1 C 11.3 km/h
1654 26-07-2015 15:00:00 23.2 C 8.52 g/m*3 23.2 C 8.1 km/h
1655 26-07-2015 15:05:00 23.1 C 8.68 g/m*3 23.1 C 8.1 km/h
1656 26-07-2015 15:10:00 23.1 C 8.27 g/m*3 23.1 C 6.4 km/h
1657 26-07-2015 15:15:00 23 C 8.43 g/m*3 23 C 3.2 km/h
1658 26-07-2015 15:20:00 22.9 C 8.79 g/m*3 22.9 C 8.1 km/h
1659 26-07-2015 15:25:00 23.4 C 8.41 g/m*3 23.4 C 11.3 km/h
1660 26-07-2015 15:30:00 23.7 C 8.13 g/m*3 23.7 C 12.9 km/h
1661 26-07-2015 15:35:00 23.7 C 8.13 g/m*3 23.7 C 11.3 km/h
1662 26-07-2015 15:40:00 23.6 C 7.87 g/m*3 23.6 C 8.1 km/h
1663 26-07-2015 15:45:00 23.3 C 7.74 g/m*3 23.3 C 9.7 km/h
1664 26-07-2015 15:50:00 23.2 C 7.9 g/m*3 23.2 C 8.1 km/h
1665 26-07-2015 15:55:00 23.6 C 8.08 g/m*3 23.6 C 4.8 km/h
1666 26-07-2015 16:00:00 23.8 C 7.96 g/m*3 23.8 C 11.3 km/h
1667 26-07-2015 16:05:00 23.7 C 7.91 g/m*3 23.7 C 12.9 km/h
1668 26-07-2015 16:10:00 23.4 C 7.78 g/m*3 23.4 C 12.9 km/h
1669 26-07-2015 16:15:00 23.3 C 8.36 g/m*3 23.3 C 6.4 km/h
1670 26-07-2015 16:20:00 23.3 C 8.15 g/m*3 23.3 C 8.1 km/h
1671 26-07-2015 16:25:00 23.3 C 8.57 g/m*3 23.3 C 4.8 km/h
1672 26-07-2015 16:30:00 23.3 C 8.15 g/m*3 23.3 C 11.3 km/h
1673 26-07-2015 16:35:00 23.4 C 7.57 g/m*3 23.4 C 12.9 km/h
1674 26-07-2015 16:40:00 23.3 C 7.95 g/m*3 23.3 C 8.1 km/h
1675 26-07-2015 16:45:00 23.1 C 8.06 g/m*3 23.1 C 11.3 km/h
Sensor: Nr:Datum:Temp:Abs-Feuchte:Windchill:Wind:
Aussen-T/F 1676 26-07-2015 16:50:00 22.8 C 7.92 g/m*3 22.8 C 3.2 km/h
1677 26-07-2015 16:55:00 22.5 C 8.19 g/m*3 22.5 C 11.3 km/h
1678 26-07-2015 17:00:00 22.4 C 7.94 g/m*3 22.4 C 6.4 km/h
1679 26-07-2015 17:05:00 22.4 C 7.94 g/m*3 22.4 C 4.8 km/h
1680 26-07-2015 17:10:00 22.3 C 8.29 g/m*3 22.3 C 1.6 km/h
1681 26-07-2015 17:15:00 22.3 C 8.29 g/m*3 22.3 C 0 km/h
1682 26-07-2015 17:20:00 22.2 C 7.66 g/m*3 22.2 C 6.4 km/h
1683 26-07-2015 17:25:00 22.1 C 7.81 g/m*3 22.1 C 4.8 km/h
1684 26-07-2015 17:30:00 21.9 C 7.72 g/m*3 21.9 C 3.2 km/h
1685 26-07-2015 17:35:00 21.8 C 8.06 g/m*3 21.8 C 4.8 km/h
1686 26-07-2015 17:40:00 21.6 C 9.48 g/m*3 21.6 C 0 km/h
1687 26-07-2015 17:45:00 21.4 C 10.12 g/m*3 21.4 C 0 km/h
1688 26-07-2015 17:50:00 21.1 C 9.03 g/m*3 21.1 C 0 km/h
1689 26-07-2015 17:55:00 20.7 C 10.98 g/m*3 20.7 C 0 km/h
1690 26-07-2015 18:00:00 20.2 C 10.84 g/m*3 20.2 C 1.6 km/h
1691 26-07-2015 18:05:00 19.7 C 11.38 g/m*3 19.7 C 0 km/h
1692 26-07-2015 18:10:00 19.2 C 11.38 g/m*3 19.2 C 1.6 km/h
1693 26-07-2015 18:15:00 18.7 C 11.53 g/m*3 18.7 C 0 km/h
1694 26-07-2015 18:20:00 18.3 C 11.41 g/m*3 18.3 C 0 km/h
1695 26-07-2015 18:25:00 17.8 C 11.38 g/m*3 17.8 C 0 km/h
1696 26-07-2015 18:30:00 17.5 C 11.33 g/m*3 17.5 C 1.6 km/h
1697 26-07-2015 18:35:00 17.2 C 11.28 g/m*3 17.2 C 0 km/h
1698 26-07-2015 18:40:00 16.8 C 11.44 g/m*3 16.8 C 1.6 km/h
1699 26-07-2015 18:45:00 16.6 C 11.58 g/m*3 16.6 C 1.6 km/h
1700 26-07-2015 18:50:00 16.3 C 11.65 g/m*3 16.3 C 3.2 km/h
Sensor: Nr:Datum:Temp:Abs-Feuchte:Windchill:Wind:
Aussen-T/F 1701 26-07-2015 18:55:00 16.2 C 11.58 g/m*3 16.2 C 1.6 km/h
1702 26-07-2015 19:00:00 16.1 C 11.51 g/m*3 16.1 C 1.6 km/h
1703 26-07-2015 19:05:00 15.8 C 11.44 g/m*3 15.8 C 1.6 km/h
1704 26-07-2015 19:10:00 15.7 C 11.37 g/m*3 15.7 C 0 km/h
1705 26-07-2015 19:15:00 15.5 C 11.5 g/m*3 15.5 C 0 km/h
1706 26-07-2015 19:20:00 15.3 C 11.49 g/m*3 15.3 C 0 km/h
1707 26-07-2015 19:25:00 15.2 C 11.55 g/m*3 15.2 C 0 km/h
1708 26-07-2015 19:30:00 15.1 C 11.61 g/m*3 15.1 C 0 km/h
1709 26-07-2015 19:35:00 15 C 11.54 g/m*3 15 C 0 km/h
1710 26-07-2015 19:40:00 14.9 C 11.6 g/m*3 14.9 C 1.6 km/h
1711 26-07-2015 19:45:00 14.8 C 11.65 g/m*3 14.8 C 0 km/h
1712 26-07-2015 19:50:00 14.7 C 11.46 g/m*3 14.7 C 0 km/h
1713 26-07-2015 19:55:00 14.6 C 11.51 g/m*3 14.6 C 1.6 km/h
1714 26-07-2015 20:00:00 14.5 C 11.44 g/m*3 14.5 C 1.6 km/h
1715 26-07-2015 20:05:00 14.3 C 11.3 g/m*3 14.3 C 1.6 km/h
1716 26-07-2015 20:10:00 14.2 C 11.23 g/m*3 14.2 C 1.6 km/h
1717 26-07-2015 20:15:00 14.2 C 11.36 g/m*3 14.2 C 1.6 km/h
1718 26-07-2015 20:20:00 14.2 C 11.36 g/m*3 14.2 C 3.2 km/h
1719 26-07-2015 20:25:00 14.1 C 11.29 g/m*3 14.1 C 1.6 km/h
1720 26-07-2015 20:30:00 14.1 C 11.29 g/m*3 14.1 C 1.6 km/h
1721 26-07-2015 22:45:00 13.6 C 11.18 g/m*3 13.6 C 0 km/h
1722 26-07-2015 22:50:00 13.5 C 11.11 g/m*3 13.5 C 0 km/h
1723 26-07-2015 22:55:00 13.5 C 11.11 g/m*3 13.5 C 0 km/h
1724 26-07-2015 23:00:00 13.5 C 11.11 g/m*3 13.5 C 0 km/h
1725 26-07-2015 23:05:00 13.4 C 11.04 g/m*3 13.4 C 0 km/h
Sensor: Nr:Datum:Temp:Abs-Feuchte:Windchill:Wind:
Aussen-T/F 1726 26-07-2015 23:10:00 13.4 C 11.16 g/m*3 13.4 C 0 km/h
1727 26-07-2015 23:15:00 13.4 C 11.16 g/m*3 13.4 C 0 km/h
1728 26-07-2015 23:20:00 13.3 C 11.09 g/m*3 13.3 C 0 km/h
1729 26-07-2015 23:25:00 13.3 C 11.09 g/m*3 13.3 C 0 km/h
1730 26-07-2015 23:30:00 13.3 C 11.09 g/m*3 13.3 C 0 km/h
1731 26-07-2015 23:35:00 13.3 C 11.09 g/m*3 13.3 C 0 km/h

Legende:
   Min
   Max


Maximal/Minimal-Werte vom 20.07.2015 - 26.07.2015

Sensor Min Max Avg
Temp
(Aussen-T/F)
9.8 °C
26-07-2015  06:00:00
32.6 °C
21-07-2015  17:35:00
20.83 °C
Abs-Feuchte
(Aussen-T/F)
7.57 g/m*3
26-07-2015  16:35:00
19.59 g/m*3
20-07-2015  17:00:00
13.16 g/m*3
Windchill
(Aussen-T/F)
9.25 C
26-07-2015  06:35:00
32.6 C
21-07-2015  17:35:00
20.82 C

Die Daten stammen von einer Davis Vantage Pro 2 Wetter-Station und werden unter Linux mit der Software wview2wettercgi und aufbereitet. Alle Angaben erfolgen ohne Gewähr für ihre Vollständigkeit oder Richtigkeit.
Kontakt: Rainer Krienke krienke@uni-koblenz.de . Meine Webseiten an der Uni Koblenz oder privat.
Version: $Revision: 0.78 $